<?xml version="1.0" encoding="UTF-8" standalone="no" ?>
<gpx xmlns="http://www.topografix.com/GPX/1/1" xmlns:xsi="http://www.w3.org/2001/XMLSchema-instance" xsi:schemaLocation="http://www.topografix.com/GPX/1/1 http://www.topografix.com/GPX/1/1/gpx.xsd" version="1.1" creator="VisuGPX - https://www.visugpx.com">
  <metadata>
    <name>La Pègue</name>
    <desc><![CDATA[description à venir
[img][/img]
[url][/url]]]></desc>
  </metadata>
  <trk>
    <name><![CDATA[08-MAI-15 11:24:18]]></name>
    <trkseg>
      <trkpt lat="42.90564" lon="0.13046">
        <ele>1713</ele>
        <time>2015-05-08T05:40:04Z</time>
      </trkpt>
      <trkpt lat="42.90565" lon="0.13047">
        <ele>1713</ele>
        <time>2015-05-08T05:40:05Z</time>
      </trkpt>
      <trkpt lat="42.90568" lon="0.1305">
        <ele>1716</ele>
        <time>2015-05-08T05:40:14Z</time>
      </trkpt>
      <trkpt lat="42.90567" lon="0.1305">
        <ele>1720</ele>
        <time>2015-05-08T05:40:17Z</time>
      </trkpt>
      <trkpt lat="42.90567" lon="0.13049">
        <ele>1723</ele>
        <time>2015-05-08T05:40:21Z</time>
      </trkpt>
      <trkpt lat="42.90567" lon="0.1305">
        <ele>1725</ele>
        <time>2015-05-08T05:40:24Z</time>
      </trkpt>
      <trkpt lat="42.90567" lon="0.13048">
        <ele>1729</ele>
        <time>2015-05-08T05:40:28Z</time>
      </trkpt>
      <trkpt lat="42.90567" lon="0.13048">
        <ele>1729</ele>
        <time>2015-05-08T05:40:29Z</time>
      </trkpt>
      <trkpt lat="42.90566" lon="0.13047">
        <ele>1731</ele>
        <time>2015-05-08T05:40:33Z</time>
      </trkpt>
      <trkpt lat="42.90566" lon="0.13046">
        <ele>1732</ele>
        <time>2015-05-08T05:40:34Z</time>
      </trkpt>
      <trkpt lat="42.90566" lon="0.13045">
        <ele>1734</ele>
        <time>2015-05-08T05:40:40Z</time>
      </trkpt>
      <trkpt lat="42.90566" lon="0.13045">
        <ele>1737</ele>
        <time>2015-05-08T05:40:46Z</time>
      </trkpt>
      <trkpt lat="42.90566" lon="0.13046">
        <ele>1741</ele>
        <time>2015-05-08T05:40:55Z</time>
      </trkpt>
      <trkpt lat="42.90565" lon="0.13045">
        <ele>1744</ele>
        <time>2015-05-08T05:41:07Z</time>
      </trkpt>
      <trkpt lat="42.90568" lon="0.13047">
        <ele>1747</ele>
        <time>2015-05-08T05:41:23Z</time>
      </trkpt>
      <trkpt lat="42.90565" lon="0.13048">
        <ele>1749</ele>
        <time>2015-05-08T05:41:43Z</time>
      </trkpt>
      <trkpt lat="42.90564" lon="0.1305">
        <ele>1749</ele>
        <time>2015-05-08T05:42:06Z</time>
      </trkpt>
      <trkpt lat="42.90565" lon="0.13052">
        <ele>1749</ele>
        <time>2015-05-08T05:42:36Z</time>
      </trkpt>
      <trkpt lat="42.90566" lon="0.13052">
        <ele>1748</ele>
        <time>2015-05-08T05:43:13Z</time>
      </trkpt>
      <trkpt lat="42.90566" lon="0.13052">
        <ele>1749</ele>
        <time>2015-05-08T05:43:46Z</time>
      </trkpt>
      <trkpt lat="42.90565" lon="0.13051">
        <ele>1750</ele>
        <time>2015-05-08T05:44:15Z</time>
      </trkpt>
      <trkpt lat="42.90565" lon="0.13053">
        <ele>1749</ele>
        <time>2015-05-08T05:44:54Z</time>
      </trkpt>
      <trkpt lat="42.90566" lon="0.13052">
        <ele>1749</ele>
        <time>2015-05-08T05:45:25Z</time>
      </trkpt>
      <trkpt lat="42.90566" lon="0.13051">
        <ele>1750</ele>
        <time>2015-05-08T05:45:54Z</time>
      </trkpt>
      <trkpt lat="42.90569" lon="0.1305">
        <ele>1749</ele>
        <time>2015-05-08T05:46:19Z</time>
      </trkpt>
      <trkpt lat="42.9057" lon="0.13053">
        <ele>1750</ele>
        <time>2015-05-08T05:46:36Z</time>
      </trkpt>
      <trkpt lat="42.90569" lon="0.13052">
        <ele>1750</ele>
        <time>2015-05-08T05:46:48Z</time>
      </trkpt>
      <trkpt lat="42.90568" lon="0.13053">
        <ele>1750</ele>
        <time>2015-05-08T05:47:07Z</time>
      </trkpt>
      <trkpt lat="42.90568" lon="0.13051">
        <ele>1749</ele>
        <time>2015-05-08T05:47:20Z</time>
      </trkpt>
      <trkpt lat="42.90568" lon="0.13051">
        <ele>1749</ele>
        <time>2015-05-08T05:47:32Z</time>
      </trkpt>
      <trkpt lat="42.90569" lon="0.13051">
        <ele>1749</ele>
        <time>2015-05-08T05:47:46Z</time>
      </trkpt>
      <trkpt lat="42.90569" lon="0.13051">
        <ele>1749</ele>
        <time>2015-05-08T05:47:47Z</time>
      </trkpt>
      <trkpt lat="42.90558" lon="0.1306">
        <ele>1749</ele>
        <time>2015-05-08T05:48:01Z</time>
      </trkpt>
      <trkpt lat="42.90547" lon="0.13072">
        <ele>1748</ele>
        <time>2015-05-08T05:48:14Z</time>
      </trkpt>
      <trkpt lat="42.90543" lon="0.13077">
        <ele>1749</ele>
        <time>2015-05-08T05:48:25Z</time>
      </trkpt>
      <trkpt lat="42.90543" lon="0.13074">
        <ele>1748</ele>
        <time>2015-05-08T05:48:40Z</time>
      </trkpt>
      <trkpt lat="42.90544" lon="0.13073">
        <ele>1747</ele>
        <time>2015-05-08T05:48:58Z</time>
      </trkpt>
      <trkpt lat="42.90542" lon="0.13075">
        <ele>1747</ele>
        <time>2015-05-08T05:49:16Z</time>
      </trkpt>
      <trkpt lat="42.90543" lon="0.13073">
        <ele>1748</ele>
        <time>2015-05-08T05:49:30Z</time>
      </trkpt>
      <trkpt lat="42.90543" lon="0.13074">
        <ele>1748</ele>
        <time>2015-05-08T05:49:36Z</time>
      </trkpt>
      <trkpt lat="42.9053" lon="0.13089">
        <ele>1750</ele>
        <time>2015-05-08T05:49:50Z</time>
      </trkpt>
      <trkpt lat="42.9052" lon="0.13102">
        <ele>1750</ele>
        <time>2015-05-08T05:50:03Z</time>
      </trkpt>
      <trkpt lat="42.90514" lon="0.13106">
        <ele>1751</ele>
        <time>2015-05-08T05:50:10Z</time>
      </trkpt>
      <trkpt lat="42.90502" lon="0.13115">
        <ele>1752</ele>
        <time>2015-05-08T05:50:25Z</time>
      </trkpt>
      <trkpt lat="42.90495" lon="0.1312">
        <ele>1754</ele>
        <time>2015-05-08T05:50:37Z</time>
      </trkpt>
      <trkpt lat="42.90484" lon="0.13121">
        <ele>1756</ele>
        <time>2015-05-08T05:50:51Z</time>
      </trkpt>
      <trkpt lat="42.90479" lon="0.13123">
        <ele>1756</ele>
        <time>2015-05-08T05:50:59Z</time>
      </trkpt>
      <trkpt lat="42.90468" lon="0.13133">
        <ele>1757</ele>
        <time>2015-05-08T05:51:14Z</time>
      </trkpt>
      <trkpt lat="42.90464" lon="0.13132">
        <ele>1759</ele>
        <time>2015-05-08T05:51:25Z</time>
      </trkpt>
      <trkpt lat="42.90464" lon="0.13126">
        <ele>1760</ele>
        <time>2015-05-08T05:51:30Z</time>
      </trkpt>
      <trkpt lat="42.90467" lon="0.13112">
        <ele>1763</ele>
        <time>2015-05-08T05:51:44Z</time>
      </trkpt>
      <trkpt lat="42.9046" lon="0.13117">
        <ele>1765</ele>
        <time>2015-05-08T05:51:56Z</time>
      </trkpt>
      <trkpt lat="42.90458" lon="0.13118">
        <ele>1765</ele>
        <time>2015-05-08T05:51:58Z</time>
      </trkpt>
      <trkpt lat="42.90449" lon="0.13124">
        <ele>1767</ele>
        <time>2015-05-08T05:52:13Z</time>
      </trkpt>
      <trkpt lat="42.90442" lon="0.1313">
        <ele>1770</ele>
        <time>2015-05-08T05:52:30Z</time>
      </trkpt>
      <trkpt lat="42.90442" lon="0.13118">
        <ele>1773</ele>
        <time>2015-05-08T05:52:44Z</time>
      </trkpt>
      <trkpt lat="42.90442" lon="0.13111">
        <ele>1776</ele>
        <time>2015-05-08T05:52:56Z</time>
      </trkpt>
      <trkpt lat="42.90433" lon="0.13113">
        <ele>1777</ele>
        <time>2015-05-08T05:53:09Z</time>
      </trkpt>
      <trkpt lat="42.90422" lon="0.13117">
        <ele>1778</ele>
        <time>2015-05-08T05:53:24Z</time>
      </trkpt>
      <trkpt lat="42.90415" lon="0.1312">
        <ele>1780</ele>
        <time>2015-05-08T05:53:39Z</time>
      </trkpt>
      <trkpt lat="42.90413" lon="0.13117">
        <ele>1781</ele>
        <time>2015-05-08T05:53:51Z</time>
      </trkpt>
      <trkpt lat="42.90411" lon="0.13109">
        <ele>1783</ele>
        <time>2015-05-08T05:54:01Z</time>
      </trkpt>
      <trkpt lat="42.90405" lon="0.13113">
        <ele>1784</ele>
        <time>2015-05-08T05:54:13Z</time>
      </trkpt>
      <trkpt lat="42.90398" lon="0.13113">
        <ele>1788</ele>
        <time>2015-05-08T05:54:27Z</time>
      </trkpt>
      <trkpt lat="42.90392" lon="0.13117">
        <ele>1791</ele>
        <time>2015-05-08T05:54:38Z</time>
      </trkpt>
      <trkpt lat="42.90386" lon="0.13115">
        <ele>1793</ele>
        <time>2015-05-08T05:54:49Z</time>
      </trkpt>
      <trkpt lat="42.90381" lon="0.13119">
        <ele>1795</ele>
        <time>2015-05-08T05:55:04Z</time>
      </trkpt>
      <trkpt lat="42.90377" lon="0.13121">
        <ele>1797</ele>
        <time>2015-05-08T05:55:13Z</time>
      </trkpt>
      <trkpt lat="42.90373" lon="0.13122">
        <ele>1799</ele>
        <time>2015-05-08T05:55:25Z</time>
      </trkpt>
      <trkpt lat="42.90367" lon="0.13123">
        <ele>1803</ele>
        <time>2015-05-08T05:55:37Z</time>
      </trkpt>
      <trkpt lat="42.90364" lon="0.13123">
        <ele>1804</ele>
        <time>2015-05-08T05:55:43Z</time>
      </trkpt>
      <trkpt lat="42.90359" lon="0.13118">
        <ele>1804</ele>
        <time>2015-05-08T05:55:56Z</time>
      </trkpt>
      <trkpt lat="42.90361" lon="0.13119">
        <ele>1805</ele>
        <time>2015-05-08T05:56:08Z</time>
      </trkpt>
      <trkpt lat="42.90361" lon="0.13117">
        <ele>1806</ele>
        <time>2015-05-08T05:56:09Z</time>
      </trkpt>
      <trkpt lat="42.90352" lon="0.13116">
        <ele>1809</ele>
        <time>2015-05-08T05:56:24Z</time>
      </trkpt>
      <trkpt lat="42.90346" lon="0.13122">
        <ele>1811</ele>
        <time>2015-05-08T05:56:34Z</time>
      </trkpt>
      <trkpt lat="42.90344" lon="0.13119">
        <ele>1814</ele>
        <time>2015-05-08T05:56:41Z</time>
      </trkpt>
      <trkpt lat="42.90344" lon="0.13116">
        <ele>1813</ele>
        <time>2015-05-08T05:56:45Z</time>
      </trkpt>
      <trkpt lat="42.90343" lon="0.13115">
        <ele>1812</ele>
        <time>2015-05-08T05:56:49Z</time>
      </trkpt>
      <trkpt lat="42.90341" lon="0.13124">
        <ele>1812</ele>
        <time>2015-05-08T05:56:56Z</time>
      </trkpt>
      <trkpt lat="42.90338" lon="0.13135">
        <ele>1814</ele>
        <time>2015-05-08T05:57:06Z</time>
      </trkpt>
      <trkpt lat="42.90336" lon="0.13119">
        <ele>1812</ele>
        <time>2015-05-08T05:57:21Z</time>
      </trkpt>
      <trkpt lat="42.90335" lon="0.13115">
        <ele>1815</ele>
        <time>2015-05-08T05:57:38Z</time>
      </trkpt>
      <trkpt lat="42.90328" lon="0.13104">
        <ele>1815</ele>
        <time>2015-05-08T05:57:52Z</time>
      </trkpt>
      <trkpt lat="42.90326" lon="0.13103">
        <ele>1815</ele>
        <time>2015-05-08T05:58:08Z</time>
      </trkpt>
      <trkpt lat="42.90325" lon="0.13103">
        <ele>1813</ele>
        <time>2015-05-08T05:58:26Z</time>
      </trkpt>
      <trkpt lat="42.90326" lon="0.13103">
        <ele>1814</ele>
        <time>2015-05-08T05:58:44Z</time>
      </trkpt>
      <trkpt lat="42.90327" lon="0.13102">
        <ele>1814</ele>
        <time>2015-05-08T05:58:58Z</time>
      </trkpt>
      <trkpt lat="42.90324" lon="0.13099">
        <ele>1815</ele>
        <time>2015-05-08T05:59:07Z</time>
      </trkpt>
      <trkpt lat="42.90321" lon="0.13108">
        <ele>1817</ele>
        <time>2015-05-08T05:59:19Z</time>
      </trkpt>
      <trkpt lat="42.90315" lon="0.13107">
        <ele>1821</ele>
        <time>2015-05-08T05:59:32Z</time>
      </trkpt>
      <trkpt lat="42.9031" lon="0.13102">
        <ele>1823</ele>
        <time>2015-05-08T05:59:45Z</time>
      </trkpt>
      <trkpt lat="42.90303" lon="0.131">
        <ele>1826</ele>
        <time>2015-05-08T06:00:01Z</time>
      </trkpt>
      <trkpt lat="42.90299" lon="0.13105">
        <ele>1829</ele>
        <time>2015-05-08T06:00:11Z</time>
      </trkpt>
      <trkpt lat="42.9029" lon="0.13105">
        <ele>1830</ele>
        <time>2015-05-08T06:00:23Z</time>
      </trkpt>
      <trkpt lat="42.90279" lon="0.131">
        <ele>1832</ele>
        <time>2015-05-08T06:00:38Z</time>
      </trkpt>
      <trkpt lat="42.90271" lon="0.13098">
        <ele>1834</ele>
        <time>2015-05-08T06:00:52Z</time>
      </trkpt>
      <trkpt lat="42.90257" lon="0.13094">
        <ele>1836</ele>
        <time>2015-05-08T06:01:06Z</time>
      </trkpt>
      <trkpt lat="42.90246" lon="0.13087">
        <ele>1837</ele>
        <time>2015-05-08T06:01:18Z</time>
      </trkpt>
      <trkpt lat="42.90234" lon="0.13083">
        <ele>1836</ele>
        <time>2015-05-08T06:01:28Z</time>
      </trkpt>
      <trkpt lat="42.90228" lon="0.13081">
        <ele>1837</ele>
        <time>2015-05-08T06:01:34Z</time>
      </trkpt>
      <trkpt lat="42.90214" lon="0.13078">
        <ele>1838</ele>
        <time>2015-05-08T06:01:49Z</time>
      </trkpt>
      <trkpt lat="42.90213" lon="0.13079">
        <ele>1838</ele>
        <time>2015-05-08T06:01:50Z</time>
      </trkpt>
      <trkpt lat="42.90204" lon="0.13078">
        <ele>1839</ele>
        <time>2015-05-08T06:01:59Z</time>
      </trkpt>
      <trkpt lat="42.90199" lon="0.13078">
        <ele>1839</ele>
        <time>2015-05-08T06:02:04Z</time>
      </trkpt>
      <trkpt lat="42.90188" lon="0.13081">
        <ele>1839</ele>
        <time>2015-05-08T06:02:16Z</time>
      </trkpt>
      <trkpt lat="42.90174" lon="0.13087">
        <ele>1840</ele>
        <time>2015-05-08T06:02:29Z</time>
      </trkpt>
      <trkpt lat="42.90161" lon="0.13097">
        <ele>1841</ele>
        <time>2015-05-08T06:02:43Z</time>
      </trkpt>
      <trkpt lat="42.90153" lon="0.13105">
        <ele>1843</ele>
        <time>2015-05-08T06:02:56Z</time>
      </trkpt>
      <trkpt lat="42.90148" lon="0.13111">
        <ele>1844</ele>
        <time>2015-05-08T06:03:04Z</time>
      </trkpt>
      <trkpt lat="42.90143" lon="0.13121">
        <ele>1846</ele>
        <time>2015-05-08T06:03:17Z</time>
      </trkpt>
      <trkpt lat="42.90141" lon="0.13125">
        <ele>1847</ele>
        <time>2015-05-08T06:03:31Z</time>
      </trkpt>
      <trkpt lat="42.90137" lon="0.13135">
        <ele>1850</ele>
        <time>2015-05-08T06:03:45Z</time>
      </trkpt>
      <trkpt lat="42.90129" lon="0.13151">
        <ele>1852</ele>
        <time>2015-05-08T06:03:59Z</time>
      </trkpt>
      <trkpt lat="42.90126" lon="0.13153">
        <ele>1855</ele>
        <time>2015-05-08T06:04:13Z</time>
      </trkpt>
      <trkpt lat="42.90121" lon="0.13143">
        <ele>1857</ele>
        <time>2015-05-08T06:04:30Z</time>
      </trkpt>
      <trkpt lat="42.90115" lon="0.13135">
        <ele>1858</ele>
        <time>2015-05-08T06:04:44Z</time>
      </trkpt>
      <trkpt lat="42.9011" lon="0.13129">
        <ele>1860</ele>
        <time>2015-05-08T06:05:01Z</time>
      </trkpt>
      <trkpt lat="42.90105" lon="0.13123">
        <ele>1863</ele>
        <time>2015-05-08T06:05:13Z</time>
      </trkpt>
      <trkpt lat="42.90101" lon="0.13114">
        <ele>1866</ele>
        <time>2015-05-08T06:05:29Z</time>
      </trkpt>
      <trkpt lat="42.90096" lon="0.13106">
        <ele>1868</ele>
        <time>2015-05-08T06:05:44Z</time>
      </trkpt>
      <trkpt lat="42.90091" lon="0.13095">
        <ele>1871</ele>
        <time>2015-05-08T06:06:01Z</time>
      </trkpt>
      <trkpt lat="42.9009" lon="0.13089">
        <ele>1873</ele>
        <time>2015-05-08T06:06:15Z</time>
      </trkpt>
      <trkpt lat="42.90088" lon="0.13085">
        <ele>1873</ele>
        <time>2015-05-08T06:06:20Z</time>
      </trkpt>
      <trkpt lat="42.90085" lon="0.13077">
        <ele>1875</ele>
        <time>2015-05-08T06:06:32Z</time>
      </trkpt>
      <trkpt lat="42.90079" lon="0.13067">
        <ele>1879</ele>
        <time>2015-05-08T06:06:48Z</time>
      </trkpt>
      <trkpt lat="42.90075" lon="0.13075">
        <ele>1882</ele>
        <time>2015-05-08T06:07:00Z</time>
      </trkpt>
      <trkpt lat="42.90072" lon="0.13093">
        <ele>1883</ele>
        <time>2015-05-08T06:07:18Z</time>
      </trkpt>
      <trkpt lat="42.90068" lon="0.13105">
        <ele>1884</ele>
        <time>2015-05-08T06:07:32Z</time>
      </trkpt>
      <trkpt lat="42.90064" lon="0.13115">
        <ele>1886</ele>
        <time>2015-05-08T06:07:45Z</time>
      </trkpt>
      <trkpt lat="42.90063" lon="0.13129">
        <ele>1887</ele>
        <time>2015-05-08T06:08:01Z</time>
      </trkpt>
      <trkpt lat="42.9006" lon="0.13141">
        <ele>1890</ele>
        <time>2015-05-08T06:08:15Z</time>
      </trkpt>
      <trkpt lat="42.90056" lon="0.13151">
        <ele>1892</ele>
        <time>2015-05-08T06:08:32Z</time>
      </trkpt>
      <trkpt lat="42.90054" lon="0.13152">
        <ele>1893</ele>
        <time>2015-05-08T06:08:42Z</time>
      </trkpt>
      <trkpt lat="42.90049" lon="0.1314">
        <ele>1897</ele>
        <time>2015-05-08T06:08:58Z</time>
      </trkpt>
      <trkpt lat="42.90044" lon="0.13127">
        <ele>1899</ele>
        <time>2015-05-08T06:09:16Z</time>
      </trkpt>
      <trkpt lat="42.90039" lon="0.13116">
        <ele>1901</ele>
        <time>2015-05-08T06:09:30Z</time>
      </trkpt>
      <trkpt lat="42.90036" lon="0.13109">
        <ele>1903</ele>
        <time>2015-05-08T06:09:45Z</time>
      </trkpt>
      <trkpt lat="42.90028" lon="0.13099">
        <ele>1904</ele>
        <time>2015-05-08T06:10:01Z</time>
      </trkpt>
      <trkpt lat="42.90024" lon="0.13106">
        <ele>1907</ele>
        <time>2015-05-08T06:10:14Z</time>
      </trkpt>
      <trkpt lat="42.90022" lon="0.13121">
        <ele>1909</ele>
        <time>2015-05-08T06:10:31Z</time>
      </trkpt>
      <trkpt lat="42.9002" lon="0.13128">
        <ele>1910</ele>
        <time>2015-05-08T06:10:46Z</time>
      </trkpt>
      <trkpt lat="42.90014" lon="0.1312">
        <ele>1913</ele>
        <time>2015-05-08T06:11:01Z</time>
      </trkpt>
      <trkpt lat="42.90012" lon="0.13116">
        <ele>1915</ele>
        <time>2015-05-08T06:11:13Z</time>
      </trkpt>
      <trkpt lat="42.9001" lon="0.1313">
        <ele>1916</ele>
        <time>2015-05-08T06:11:27Z</time>
      </trkpt>
      <trkpt lat="42.90008" lon="0.13143">
        <ele>1919</ele>
        <time>2015-05-08T06:11:43Z</time>
      </trkpt>
      <trkpt lat="42.90007" lon="0.1315">
        <ele>1921</ele>
        <time>2015-05-08T06:11:56Z</time>
      </trkpt>
      <trkpt lat="42.90003" lon="0.13149">
        <ele>1922</ele>
        <time>2015-05-08T06:12:09Z</time>
      </trkpt>
      <trkpt lat="42.89998" lon="0.13142">
        <ele>1924</ele>
        <time>2015-05-08T06:12:24Z</time>
      </trkpt>
      <trkpt lat="42.89992" lon="0.13132">
        <ele>1928</ele>
        <time>2015-05-08T06:12:41Z</time>
      </trkpt>
      <trkpt lat="42.89988" lon="0.13119">
        <ele>1930</ele>
        <time>2015-05-08T06:13:00Z</time>
      </trkpt>
      <trkpt lat="42.89985" lon="0.13111">
        <ele>1933</ele>
        <time>2015-05-08T06:13:14Z</time>
      </trkpt>
      <trkpt lat="42.89981" lon="0.13101">
        <ele>1936</ele>
        <time>2015-05-08T06:13:32Z</time>
      </trkpt>
      <trkpt lat="42.89979" lon="0.13107">
        <ele>1937</ele>
        <time>2015-05-08T06:13:43Z</time>
      </trkpt>
      <trkpt lat="42.89975" lon="0.13119">
        <ele>1940</ele>
        <time>2015-05-08T06:13:58Z</time>
      </trkpt>
      <trkpt lat="42.8997" lon="0.13132">
        <ele>1942</ele>
        <time>2015-05-08T06:14:14Z</time>
      </trkpt>
      <trkpt lat="42.89967" lon="0.13144">
        <ele>1944</ele>
        <time>2015-05-08T06:14:28Z</time>
      </trkpt>
      <trkpt lat="42.89965" lon="0.13148">
        <ele>1945</ele>
        <time>2015-05-08T06:14:43Z</time>
      </trkpt>
      <trkpt lat="42.89964" lon="0.13162">
        <ele>1947</ele>
        <time>2015-05-08T06:14:58Z</time>
      </trkpt>
      <trkpt lat="42.89959" lon="0.1317">
        <ele>1951</ele>
        <time>2015-05-08T06:15:09Z</time>
      </trkpt>
      <trkpt lat="42.89952" lon="0.13177">
        <ele>1952</ele>
        <time>2015-05-08T06:15:25Z</time>
      </trkpt>
      <trkpt lat="42.89946" lon="0.13187">
        <ele>1954</ele>
        <time>2015-05-08T06:15:41Z</time>
      </trkpt>
      <trkpt lat="42.89938" lon="0.13195">
        <ele>1957</ele>
        <time>2015-05-08T06:15:58Z</time>
      </trkpt>
      <trkpt lat="42.89931" lon="0.13206">
        <ele>1958</ele>
        <time>2015-05-08T06:16:13Z</time>
      </trkpt>
      <trkpt lat="42.89926" lon="0.13221">
        <ele>1961</ele>
        <time>2015-05-08T06:16:31Z</time>
      </trkpt>
      <trkpt lat="42.89924" lon="0.13232">
        <ele>1963</ele>
        <time>2015-05-08T06:16:46Z</time>
      </trkpt>
      <trkpt lat="42.89922" lon="0.13243">
        <ele>1965</ele>
        <time>2015-05-08T06:17:00Z</time>
      </trkpt>
      <trkpt lat="42.89918" lon="0.13256">
        <ele>1968</ele>
        <time>2015-05-08T06:17:17Z</time>
      </trkpt>
      <trkpt lat="42.89912" lon="0.13264">
        <ele>1969</ele>
        <time>2015-05-08T06:17:31Z</time>
      </trkpt>
      <trkpt lat="42.89906" lon="0.13274">
        <ele>1972</ele>
        <time>2015-05-08T06:17:46Z</time>
      </trkpt>
      <trkpt lat="42.89898" lon="0.13284">
        <ele>1974</ele>
        <time>2015-05-08T06:18:03Z</time>
      </trkpt>
      <trkpt lat="42.89893" lon="0.13296">
        <ele>1977</ele>
        <time>2015-05-08T06:18:19Z</time>
      </trkpt>
      <trkpt lat="42.89888" lon="0.13309">
        <ele>1979</ele>
        <time>2015-05-08T06:18:36Z</time>
      </trkpt>
      <trkpt lat="42.89882" lon="0.13317">
        <ele>1981</ele>
        <time>2015-05-08T06:18:50Z</time>
      </trkpt>
      <trkpt lat="42.89876" lon="0.13324">
        <ele>1983</ele>
        <time>2015-05-08T06:19:07Z</time>
      </trkpt>
      <trkpt lat="42.8987" lon="0.13316">
        <ele>1985</ele>
        <time>2015-05-08T06:19:21Z</time>
      </trkpt>
      <trkpt lat="42.89863" lon="0.13309">
        <ele>1988</ele>
        <time>2015-05-08T06:19:35Z</time>
      </trkpt>
      <trkpt lat="42.89858" lon="0.13301">
        <ele>1990</ele>
        <time>2015-05-08T06:19:51Z</time>
      </trkpt>
      <trkpt lat="42.89857" lon="0.13298">
        <ele>1991</ele>
        <time>2015-05-08T06:19:57Z</time>
      </trkpt>
      <trkpt lat="42.89856" lon="0.13301">
        <ele>1993</ele>
        <time>2015-05-08T06:20:06Z</time>
      </trkpt>
      <trkpt lat="42.89853" lon="0.13309">
        <ele>1994</ele>
        <time>2015-05-08T06:20:15Z</time>
      </trkpt>
      <trkpt lat="42.89851" lon="0.1332">
        <ele>1996</ele>
        <time>2015-05-08T06:20:30Z</time>
      </trkpt>
      <trkpt lat="42.89845" lon="0.13332">
        <ele>1998</ele>
        <time>2015-05-08T06:20:44Z</time>
      </trkpt>
      <trkpt lat="42.89843" lon="0.13345">
        <ele>2000</ele>
        <time>2015-05-08T06:20:58Z</time>
      </trkpt>
      <trkpt lat="42.89842" lon="0.13355">
        <ele>2002</ele>
        <time>2015-05-08T06:21:14Z</time>
      </trkpt>
      <trkpt lat="42.89845" lon="0.13366">
        <ele>2005</ele>
        <time>2015-05-08T06:21:26Z</time>
      </trkpt>
      <trkpt lat="42.89842" lon="0.13369">
        <ele>2006</ele>
        <time>2015-05-08T06:21:38Z</time>
      </trkpt>
      <trkpt lat="42.89833" lon="0.13367">
        <ele>2009</ele>
        <time>2015-05-08T06:21:54Z</time>
      </trkpt>
      <trkpt lat="42.89823" lon="0.13369">
        <ele>2012</ele>
        <time>2015-05-08T06:22:10Z</time>
      </trkpt>
      <trkpt lat="42.89812" lon="0.13374">
        <ele>2014</ele>
        <time>2015-05-08T06:22:24Z</time>
      </trkpt>
      <trkpt lat="42.89805" lon="0.13371">
        <ele>2016</ele>
        <time>2015-05-08T06:22:42Z</time>
      </trkpt>
      <trkpt lat="42.89793" lon="0.13364">
        <ele>2019</ele>
        <time>2015-05-08T06:23:03Z</time>
      </trkpt>
      <trkpt lat="42.89786" lon="0.13361">
        <ele>2021</ele>
        <time>2015-05-08T06:23:14Z</time>
      </trkpt>
      <trkpt lat="42.89779" lon="0.13359">
        <ele>2022</ele>
        <time>2015-05-08T06:23:26Z</time>
      </trkpt>
      <trkpt lat="42.89779" lon="0.13363">
        <ele>2025</ele>
        <time>2015-05-08T06:23:36Z</time>
      </trkpt>
      <trkpt lat="42.89782" lon="0.13377">
        <ele>2026</ele>
        <time>2015-05-08T06:23:52Z</time>
      </trkpt>
      <trkpt lat="42.89784" lon="0.13392">
        <ele>2029</ele>
        <time>2015-05-08T06:24:05Z</time>
      </trkpt>
      <trkpt lat="42.89786" lon="0.13398">
        <ele>2030</ele>
        <time>2015-05-08T06:24:18Z</time>
      </trkpt>
      <trkpt lat="42.89787" lon="0.13408">
        <ele>2033</ele>
        <time>2015-05-08T06:24:34Z</time>
      </trkpt>
      <trkpt lat="42.89787" lon="0.13417">
        <ele>2035</ele>
        <time>2015-05-08T06:24:50Z</time>
      </trkpt>
      <trkpt lat="42.89786" lon="0.1343">
        <ele>2037</ele>
        <time>2015-05-08T06:25:06Z</time>
      </trkpt>
      <trkpt lat="42.89782" lon="0.13434">
        <ele>2039</ele>
        <time>2015-05-08T06:25:16Z</time>
      </trkpt>
      <trkpt lat="42.89774" lon="0.13429">
        <ele>2041</ele>
        <time>2015-05-08T06:25:28Z</time>
      </trkpt>
      <trkpt lat="42.89765" lon="0.13429">
        <ele>2043</ele>
        <time>2015-05-08T06:25:42Z</time>
      </trkpt>
      <trkpt lat="42.89757" lon="0.13424">
        <ele>2045</ele>
        <time>2015-05-08T06:25:56Z</time>
      </trkpt>
      <trkpt lat="42.89751" lon="0.13418">
        <ele>2049</ele>
        <time>2015-05-08T06:26:09Z</time>
      </trkpt>
      <trkpt lat="42.89751" lon="0.13418">
        <ele>2049</ele>
        <time>2015-05-08T06:26:11Z</time>
      </trkpt>
      <trkpt lat="42.89749" lon="0.13416">
        <ele>2051</ele>
        <time>2015-05-08T06:26:16Z</time>
      </trkpt>
      <trkpt lat="42.89742" lon="0.13412">
        <ele>2051</ele>
        <time>2015-05-08T06:26:32Z</time>
      </trkpt>
      <trkpt lat="42.89736" lon="0.13421">
        <ele>2052</ele>
        <time>2015-05-08T06:26:43Z</time>
      </trkpt>
      <trkpt lat="42.89735" lon="0.13429">
        <ele>2053</ele>
        <time>2015-05-08T06:26:55Z</time>
      </trkpt>
      <trkpt lat="42.89724" lon="0.13432">
        <ele>2054</ele>
        <time>2015-05-08T06:27:09Z</time>
      </trkpt>
      <trkpt lat="42.89709" lon="0.13427">
        <ele>2057</ele>
        <time>2015-05-08T06:27:24Z</time>
      </trkpt>
      <trkpt lat="42.89702" lon="0.13425">
        <ele>2059</ele>
        <time>2015-05-08T06:27:38Z</time>
      </trkpt>
      <trkpt lat="42.89694" lon="0.13423">
        <ele>2062</ele>
        <time>2015-05-08T06:27:53Z</time>
      </trkpt>
      <trkpt lat="42.89691" lon="0.13421">
        <ele>2062</ele>
        <time>2015-05-08T06:27:58Z</time>
      </trkpt>
      <trkpt lat="42.8968" lon="0.13418">
        <ele>2065</ele>
        <time>2015-05-08T06:28:14Z</time>
      </trkpt>
      <trkpt lat="42.89673" lon="0.13417">
        <ele>2068</ele>
        <time>2015-05-08T06:28:25Z</time>
      </trkpt>
      <trkpt lat="42.8967" lon="0.13418">
        <ele>2067</ele>
        <time>2015-05-08T06:28:30Z</time>
      </trkpt>
      <trkpt lat="42.89661" lon="0.13415">
        <ele>2071</ele>
        <time>2015-05-08T06:28:42Z</time>
      </trkpt>
      <trkpt lat="42.89658" lon="0.13413">
        <ele>2068</ele>
        <time>2015-05-08T06:28:46Z</time>
      </trkpt>
      <trkpt lat="42.89651" lon="0.13413">
        <ele>2070</ele>
        <time>2015-05-08T06:28:55Z</time>
      </trkpt>
      <trkpt lat="42.8964" lon="0.13417">
        <ele>2071</ele>
        <time>2015-05-08T06:29:06Z</time>
      </trkpt>
      <trkpt lat="42.89626" lon="0.13418">
        <ele>2074</ele>
        <time>2015-05-08T06:29:21Z</time>
      </trkpt>
      <trkpt lat="42.89615" lon="0.13417">
        <ele>2076</ele>
        <time>2015-05-08T06:29:36Z</time>
      </trkpt>
      <trkpt lat="42.89605" lon="0.13415">
        <ele>2078</ele>
        <time>2015-05-08T06:29:50Z</time>
      </trkpt>
      <trkpt lat="42.89593" lon="0.13411">
        <ele>2080</ele>
        <time>2015-05-08T06:30:06Z</time>
      </trkpt>
      <trkpt lat="42.89581" lon="0.13409">
        <ele>2082</ele>
        <time>2015-05-08T06:30:21Z</time>
      </trkpt>
      <trkpt lat="42.89572" lon="0.13406">
        <ele>2086</ele>
        <time>2015-05-08T06:30:35Z</time>
      </trkpt>
      <trkpt lat="42.89571" lon="0.13405">
        <ele>2086</ele>
        <time>2015-05-08T06:30:38Z</time>
      </trkpt>
      <trkpt lat="42.89559" lon="0.13401">
        <ele>2089</ele>
        <time>2015-05-08T06:30:55Z</time>
      </trkpt>
      <trkpt lat="42.89548" lon="0.13398">
        <ele>2090</ele>
        <time>2015-05-08T06:31:11Z</time>
      </trkpt>
      <trkpt lat="42.8954" lon="0.13395">
        <ele>2093</ele>
        <time>2015-05-08T06:31:24Z</time>
      </trkpt>
      <trkpt lat="42.89528" lon="0.13392">
        <ele>2093</ele>
        <time>2015-05-08T06:31:40Z</time>
      </trkpt>
      <trkpt lat="42.8952" lon="0.1339">
        <ele>2096</ele>
        <time>2015-05-08T06:31:52Z</time>
      </trkpt>
      <trkpt lat="42.89509" lon="0.13385">
        <ele>2098</ele>
        <time>2015-05-08T06:32:08Z</time>
      </trkpt>
      <trkpt lat="42.89505" lon="0.13384">
        <ele>2100</ele>
        <time>2015-05-08T06:32:15Z</time>
      </trkpt>
      <trkpt lat="42.89493" lon="0.13382">
        <ele>2101</ele>
        <time>2015-05-08T06:32:30Z</time>
      </trkpt>
      <trkpt lat="42.89484" lon="0.1338">
        <ele>2103</ele>
        <time>2015-05-08T06:32:44Z</time>
      </trkpt>
      <trkpt lat="42.89479" lon="0.13379">
        <ele>2104</ele>
        <time>2015-05-08T06:32:53Z</time>
      </trkpt>
      <trkpt lat="42.89471" lon="0.13378">
        <ele>2107</ele>
        <time>2015-05-08T06:33:06Z</time>
      </trkpt>
      <trkpt lat="42.89463" lon="0.13378">
        <ele>2110</ele>
        <time>2015-05-08T06:33:17Z</time>
      </trkpt>
      <trkpt lat="42.89454" lon="0.13376">
        <ele>2113</ele>
        <time>2015-05-08T06:33:31Z</time>
      </trkpt>
      <trkpt lat="42.89445" lon="0.13372">
        <ele>2114</ele>
        <time>2015-05-08T06:33:45Z</time>
      </trkpt>
      <trkpt lat="42.89439" lon="0.13367">
        <ele>2117</ele>
        <time>2015-05-08T06:33:59Z</time>
      </trkpt>
      <trkpt lat="42.89433" lon="0.13362">
        <ele>2119</ele>
        <time>2015-05-08T06:34:12Z</time>
      </trkpt>
      <trkpt lat="42.89425" lon="0.13358">
        <ele>2121</ele>
        <time>2015-05-08T06:34:23Z</time>
      </trkpt>
      <trkpt lat="42.89423" lon="0.13356">
        <ele>2122</ele>
        <time>2015-05-08T06:34:27Z</time>
      </trkpt>
      <trkpt lat="42.8942" lon="0.13354">
        <ele>2123</ele>
        <time>2015-05-08T06:34:35Z</time>
      </trkpt>
      <trkpt lat="42.89415" lon="0.13353">
        <ele>2124</ele>
        <time>2015-05-08T06:34:41Z</time>
      </trkpt>
      <trkpt lat="42.89408" lon="0.13348">
        <ele>2126</ele>
        <time>2015-05-08T06:34:55Z</time>
      </trkpt>
      <trkpt lat="42.89404" lon="0.13344">
        <ele>2129</ele>
        <time>2015-05-08T06:35:03Z</time>
      </trkpt>
      <trkpt lat="42.89404" lon="0.13343">
        <ele>2129</ele>
        <time>2015-05-08T06:35:04Z</time>
      </trkpt>
      <trkpt lat="42.89404" lon="0.13342">
        <ele>2131</ele>
        <time>2015-05-08T06:35:07Z</time>
      </trkpt>
      <trkpt lat="42.89399" lon="0.13335">
        <ele>2130</ele>
        <time>2015-05-08T06:35:17Z</time>
      </trkpt>
      <trkpt lat="42.89393" lon="0.13324">
        <ele>2132</ele>
        <time>2015-05-08T06:35:32Z</time>
      </trkpt>
      <trkpt lat="42.89392" lon="0.1331">
        <ele>2134</ele>
        <time>2015-05-08T06:35:48Z</time>
      </trkpt>
      <trkpt lat="42.89392" lon="0.13308">
        <ele>2136</ele>
        <time>2015-05-08T06:35:51Z</time>
      </trkpt>
      <trkpt lat="42.89392" lon="0.13298">
        <ele>2137</ele>
        <time>2015-05-08T06:36:05Z</time>
      </trkpt>
      <trkpt lat="42.8939" lon="0.13291">
        <ele>2139</ele>
        <time>2015-05-08T06:36:17Z</time>
      </trkpt>
      <trkpt lat="42.8939" lon="0.1329">
        <ele>2141</ele>
        <time>2015-05-08T06:36:22Z</time>
      </trkpt>
      <trkpt lat="42.89385" lon="0.13289">
        <ele>2143</ele>
        <time>2015-05-08T06:36:37Z</time>
      </trkpt>
      <trkpt lat="42.8938" lon="0.13288">
        <ele>2145</ele>
        <time>2015-05-08T06:36:50Z</time>
      </trkpt>
      <trkpt lat="42.89371" lon="0.13288">
        <ele>2147</ele>
        <time>2015-05-08T06:37:03Z</time>
      </trkpt>
      <trkpt lat="42.89367" lon="0.13289">
        <ele>2150</ele>
        <time>2015-05-08T06:37:14Z</time>
      </trkpt>
      <trkpt lat="42.89356" lon="0.13295">
        <ele>2151</ele>
        <time>2015-05-08T06:37:32Z</time>
      </trkpt>
      <trkpt lat="42.89349" lon="0.13299">
        <ele>2153</ele>
        <time>2015-05-08T06:37:47Z</time>
      </trkpt>
      <trkpt lat="42.89344" lon="0.13299">
        <ele>2155</ele>
        <time>2015-05-08T06:38:02Z</time>
      </trkpt>
      <trkpt lat="42.89338" lon="0.13301">
        <ele>2158</ele>
        <time>2015-05-08T06:38:12Z</time>
      </trkpt>
      <trkpt lat="42.8933" lon="0.13305">
        <ele>2161</ele>
        <time>2015-05-08T06:38:24Z</time>
      </trkpt>
      <trkpt lat="42.89325" lon="0.13309">
        <ele>2162</ele>
        <time>2015-05-08T06:38:36Z</time>
      </trkpt>
      <trkpt lat="42.89318" lon="0.13315">
        <ele>2165</ele>
        <time>2015-05-08T06:38:50Z</time>
      </trkpt>
      <trkpt lat="42.89315" lon="0.13307">
        <ele>2166</ele>
        <time>2015-05-08T06:39:03Z</time>
      </trkpt>
      <trkpt lat="42.89317" lon="0.13295">
        <ele>2168</ele>
        <time>2015-05-08T06:39:17Z</time>
      </trkpt>
      <trkpt lat="42.89314" lon="0.13298">
        <ele>2170</ele>
        <time>2015-05-08T06:39:27Z</time>
      </trkpt>
      <trkpt lat="42.89305" lon="0.133">
        <ele>2172</ele>
        <time>2015-05-08T06:39:42Z</time>
      </trkpt>
      <trkpt lat="42.89298" lon="0.13303">
        <ele>2174</ele>
        <time>2015-05-08T06:39:54Z</time>
      </trkpt>
      <trkpt lat="42.89294" lon="0.13311">
        <ele>2178</ele>
        <time>2015-05-08T06:40:05Z</time>
      </trkpt>
      <trkpt lat="42.89292" lon="0.13316">
        <ele>2179</ele>
        <time>2015-05-08T06:40:15Z</time>
      </trkpt>
      <trkpt lat="42.89288" lon="0.13312">
        <ele>2181</ele>
        <time>2015-05-08T06:40:21Z</time>
      </trkpt>
      <trkpt lat="42.89288" lon="0.13311">
        <ele>2180</ele>
        <time>2015-05-08T06:40:23Z</time>
      </trkpt>
      <trkpt lat="42.89283" lon="0.13303">
        <ele>2181</ele>
        <time>2015-05-08T06:40:35Z</time>
      </trkpt>
      <trkpt lat="42.89277" lon="0.13304">
        <ele>2182</ele>
        <time>2015-05-08T06:40:48Z</time>
      </trkpt>
      <trkpt lat="42.89268" lon="0.13316">
        <ele>2183</ele>
        <time>2015-05-08T06:41:05Z</time>
      </trkpt>
      <trkpt lat="42.89261" lon="0.13327">
        <ele>2186</ele>
        <time>2015-05-08T06:41:19Z</time>
      </trkpt>
      <trkpt lat="42.89248" lon="0.13327">
        <ele>2190</ele>
        <time>2015-05-08T06:41:32Z</time>
      </trkpt>
      <trkpt lat="42.89245" lon="0.13326">
        <ele>2191</ele>
        <time>2015-05-08T06:41:36Z</time>
      </trkpt>
      <trkpt lat="42.89232" lon="0.13328">
        <ele>2193</ele>
        <time>2015-05-08T06:41:51Z</time>
      </trkpt>
      <trkpt lat="42.89222" lon="0.1332">
        <ele>2196</ele>
        <time>2015-05-08T06:42:07Z</time>
      </trkpt>
      <trkpt lat="42.89221" lon="0.13317">
        <ele>2198</ele>
        <time>2015-05-08T06:42:21Z</time>
      </trkpt>
      <trkpt lat="42.89221" lon="0.13317">
        <ele>2199</ele>
        <time>2015-05-08T06:42:23Z</time>
      </trkpt>
      <trkpt lat="42.89211" lon="0.13311">
        <ele>2199</ele>
        <time>2015-05-08T06:42:37Z</time>
      </trkpt>
      <trkpt lat="42.89208" lon="0.13308">
        <ele>2203</ele>
        <time>2015-05-08T06:42:45Z</time>
      </trkpt>
      <trkpt lat="42.89203" lon="0.13304">
        <ele>2205</ele>
        <time>2015-05-08T06:42:54Z</time>
      </trkpt>
      <trkpt lat="42.89197" lon="0.13291">
        <ele>2204</ele>
        <time>2015-05-08T06:43:08Z</time>
      </trkpt>
      <trkpt lat="42.89197" lon="0.1329">
        <ele>2206</ele>
        <time>2015-05-08T06:43:10Z</time>
      </trkpt>
      <trkpt lat="42.89196" lon="0.13283">
        <ele>2208</ele>
        <time>2015-05-08T06:43:19Z</time>
      </trkpt>
      <trkpt lat="42.89196" lon="0.13276">
        <ele>2209</ele>
        <time>2015-05-08T06:43:24Z</time>
      </trkpt>
      <trkpt lat="42.89194" lon="0.13254">
        <ele>2212</ele>
        <time>2015-05-08T06:43:42Z</time>
      </trkpt>
      <trkpt lat="42.89193" lon="0.13249">
        <ele>2213</ele>
        <time>2015-05-08T06:43:46Z</time>
      </trkpt>
      <trkpt lat="42.89189" lon="0.13234">
        <ele>2215</ele>
        <time>2015-05-08T06:44:02Z</time>
      </trkpt>
      <trkpt lat="42.89182" lon="0.13225">
        <ele>2217</ele>
        <time>2015-05-08T06:44:17Z</time>
      </trkpt>
      <trkpt lat="42.89171" lon="0.13223">
        <ele>2220</ele>
        <time>2015-05-08T06:44:32Z</time>
      </trkpt>
      <trkpt lat="42.89161" lon="0.1322">
        <ele>2223</ele>
        <time>2015-05-08T06:44:47Z</time>
      </trkpt>
      <trkpt lat="42.89154" lon="0.13221">
        <ele>2226</ele>
        <time>2015-05-08T06:45:00Z</time>
      </trkpt>
      <trkpt lat="42.89148" lon="0.13209">
        <ele>2228</ele>
        <time>2015-05-08T06:45:15Z</time>
      </trkpt>
      <trkpt lat="42.89144" lon="0.13199">
        <ele>2230</ele>
        <time>2015-05-08T06:45:28Z</time>
      </trkpt>
      <trkpt lat="42.89139" lon="0.1319">
        <ele>2233</ele>
        <time>2015-05-08T06:45:43Z</time>
      </trkpt>
      <trkpt lat="42.89137" lon="0.13182">
        <ele>2236</ele>
        <time>2015-05-08T06:45:56Z</time>
      </trkpt>
      <trkpt lat="42.89131" lon="0.13172">
        <ele>2239</ele>
        <time>2015-05-08T06:46:11Z</time>
      </trkpt>
      <trkpt lat="42.89123" lon="0.13159">
        <ele>2240</ele>
        <time>2015-05-08T06:46:26Z</time>
      </trkpt>
      <trkpt lat="42.89115" lon="0.13147">
        <ele>2242</ele>
        <time>2015-05-08T06:46:41Z</time>
      </trkpt>
      <trkpt lat="42.89113" lon="0.13145">
        <ele>2243</ele>
        <time>2015-05-08T06:46:44Z</time>
      </trkpt>
      <trkpt lat="42.89108" lon="0.13137">
        <ele>2243</ele>
        <time>2015-05-08T06:46:52Z</time>
      </trkpt>
      <trkpt lat="42.89106" lon="0.13124">
        <ele>2244</ele>
        <time>2015-05-08T06:47:04Z</time>
      </trkpt>
      <trkpt lat="42.89105" lon="0.13117">
        <ele>2246</ele>
        <time>2015-05-08T06:47:13Z</time>
      </trkpt>
      <trkpt lat="42.89097" lon="0.13115">
        <ele>2250</ele>
        <time>2015-05-08T06:47:26Z</time>
      </trkpt>
      <trkpt lat="42.89092" lon="0.13112">
        <ele>2250</ele>
        <time>2015-05-08T06:47:39Z</time>
      </trkpt>
      <trkpt lat="42.89096" lon="0.13104">
        <ele>2253</ele>
        <time>2015-05-08T06:47:52Z</time>
      </trkpt>
      <trkpt lat="42.89096" lon="0.13103">
        <ele>2253</ele>
        <time>2015-05-08T06:48:07Z</time>
      </trkpt>
      <trkpt lat="42.89089" lon="0.13102">
        <ele>2256</ele>
        <time>2015-05-08T06:48:21Z</time>
      </trkpt>
      <trkpt lat="42.89087" lon="0.13101">
        <ele>2257</ele>
        <time>2015-05-08T06:48:32Z</time>
      </trkpt>
      <trkpt lat="42.89089" lon="0.1309">
        <ele>2259</ele>
        <time>2015-05-08T06:48:46Z</time>
      </trkpt>
      <trkpt lat="42.89086" lon="0.13093">
        <ele>2260</ele>
        <time>2015-05-08T06:49:01Z</time>
      </trkpt>
      <trkpt lat="42.89083" lon="0.13092">
        <ele>2261</ele>
        <time>2015-05-08T06:49:12Z</time>
      </trkpt>
      <trkpt lat="42.89083" lon="0.13088">
        <ele>2262</ele>
        <time>2015-05-08T06:49:26Z</time>
      </trkpt>
      <trkpt lat="42.89074" lon="0.13088">
        <ele>2265</ele>
        <time>2015-05-08T06:49:41Z</time>
      </trkpt>
      <trkpt lat="42.89065" lon="0.13089">
        <ele>2268</ele>
        <time>2015-05-08T06:49:56Z</time>
      </trkpt>
      <trkpt lat="42.89062" lon="0.13089">
        <ele>2269</ele>
        <time>2015-05-08T06:50:02Z</time>
      </trkpt>
      <trkpt lat="42.89053" lon="0.13094">
        <ele>2272</ele>
        <time>2015-05-08T06:50:17Z</time>
      </trkpt>
      <trkpt lat="42.89053" lon="0.13083">
        <ele>2273</ele>
        <time>2015-05-08T06:50:31Z</time>
      </trkpt>
      <trkpt lat="42.89053" lon="0.13074">
        <ele>2276</ele>
        <time>2015-05-08T06:50:45Z</time>
      </trkpt>
      <trkpt lat="42.89052" lon="0.13063">
        <ele>2278</ele>
        <time>2015-05-08T06:51:00Z</time>
      </trkpt>
      <trkpt lat="42.8905" lon="0.1305">
        <ele>2281</ele>
        <time>2015-05-08T06:51:14Z</time>
      </trkpt>
      <trkpt lat="42.8905" lon="0.13037">
        <ele>2283</ele>
        <time>2015-05-08T06:51:30Z</time>
      </trkpt>
      <trkpt lat="42.89051" lon="0.13024">
        <ele>2286</ele>
        <time>2015-05-08T06:51:45Z</time>
      </trkpt>
      <trkpt lat="42.89046" lon="0.13022">
        <ele>2288</ele>
        <time>2015-05-08T06:51:56Z</time>
      </trkpt>
      <trkpt lat="42.89036" lon="0.1302">
        <ele>2290</ele>
        <time>2015-05-08T06:52:11Z</time>
      </trkpt>
      <trkpt lat="42.89026" lon="0.13019">
        <ele>2291</ele>
        <time>2015-05-08T06:52:25Z</time>
      </trkpt>
      <trkpt lat="42.8902" lon="0.13025">
        <ele>2294</ele>
        <time>2015-05-08T06:52:37Z</time>
      </trkpt>
      <trkpt lat="42.89011" lon="0.1303">
        <ele>2297</ele>
        <time>2015-05-08T06:52:57Z</time>
      </trkpt>
      <trkpt lat="42.89002" lon="0.13034">
        <ele>2300</ele>
        <time>2015-05-08T06:53:13Z</time>
      </trkpt>
      <trkpt lat="42.89001" lon="0.13029">
        <ele>2302</ele>
        <time>2015-05-08T06:53:26Z</time>
      </trkpt>
      <trkpt lat="42.89001" lon="0.13016">
        <ele>2305</ele>
        <time>2015-05-08T06:53:40Z</time>
      </trkpt>
      <trkpt lat="42.89005" lon="0.13005">
        <ele>2307</ele>
        <time>2015-05-08T06:53:56Z</time>
      </trkpt>
      <trkpt lat="42.89009" lon="0.12996">
        <ele>2310</ele>
        <time>2015-05-08T06:54:14Z</time>
      </trkpt>
      <trkpt lat="42.89008" lon="0.12996">
        <ele>2310</ele>
        <time>2015-05-08T06:54:24Z</time>
      </trkpt>
      <trkpt lat="42.88999" lon="0.12997">
        <ele>2312</ele>
        <time>2015-05-08T06:54:39Z</time>
      </trkpt>
      <trkpt lat="42.88991" lon="0.13002">
        <ele>2313</ele>
        <time>2015-05-08T06:54:52Z</time>
      </trkpt>
      <trkpt lat="42.88987" lon="0.13007">
        <ele>2315</ele>
        <time>2015-05-08T06:55:05Z</time>
      </trkpt>
      <trkpt lat="42.88986" lon="0.13012">
        <ele>2317</ele>
        <time>2015-05-08T06:55:21Z</time>
      </trkpt>
      <trkpt lat="42.88986" lon="0.13007">
        <ele>2318</ele>
        <time>2015-05-08T06:55:32Z</time>
      </trkpt>
      <trkpt lat="42.88988" lon="0.12999">
        <ele>2319</ele>
        <time>2015-05-08T06:55:44Z</time>
      </trkpt>
      <trkpt lat="42.88987" lon="0.12989">
        <ele>2322</ele>
        <time>2015-05-08T06:55:56Z</time>
      </trkpt>
      <trkpt lat="42.88988" lon="0.12977">
        <ele>2325</ele>
        <time>2015-05-08T06:56:12Z</time>
      </trkpt>
      <trkpt lat="42.88991" lon="0.12971">
        <ele>2326</ele>
        <time>2015-05-08T06:56:25Z</time>
      </trkpt>
      <trkpt lat="42.88988" lon="0.12972">
        <ele>2327</ele>
        <time>2015-05-08T06:56:41Z</time>
      </trkpt>
      <trkpt lat="42.88981" lon="0.12976">
        <ele>2330</ele>
        <time>2015-05-08T06:56:57Z</time>
      </trkpt>
      <trkpt lat="42.88973" lon="0.12981">
        <ele>2333</ele>
        <time>2015-05-08T06:57:14Z</time>
      </trkpt>
      <trkpt lat="42.88965" lon="0.12987">
        <ele>2336</ele>
        <time>2015-05-08T06:57:30Z</time>
      </trkpt>
      <trkpt lat="42.88954" lon="0.12991">
        <ele>2339</ele>
        <time>2015-05-08T06:57:43Z</time>
      </trkpt>
      <trkpt lat="42.88945" lon="0.12992">
        <ele>2341</ele>
        <time>2015-05-08T06:57:56Z</time>
      </trkpt>
      <trkpt lat="42.88946" lon="0.1298">
        <ele>2343</ele>
        <time>2015-05-08T06:58:10Z</time>
      </trkpt>
      <trkpt lat="42.88947" lon="0.12977">
        <ele>2343</ele>
        <time>2015-05-08T06:58:28Z</time>
      </trkpt>
      <trkpt lat="42.88949" lon="0.12966">
        <ele>2346</ele>
        <time>2015-05-08T06:58:44Z</time>
      </trkpt>
      <trkpt lat="42.88955" lon="0.12955">
        <ele>2347</ele>
        <time>2015-05-08T06:59:01Z</time>
      </trkpt>
      <trkpt lat="42.8896" lon="0.1294">
        <ele>2350</ele>
        <time>2015-05-08T06:59:18Z</time>
      </trkpt>
      <trkpt lat="42.88966" lon="0.12931">
        <ele>2352</ele>
        <time>2015-05-08T06:59:34Z</time>
      </trkpt>
      <trkpt lat="42.88971" lon="0.12921">
        <ele>2355</ele>
        <time>2015-05-08T06:59:50Z</time>
      </trkpt>
      <trkpt lat="42.88967" lon="0.12922">
        <ele>2355</ele>
        <time>2015-05-08T07:00:02Z</time>
      </trkpt>
      <trkpt lat="42.88966" lon="0.12924">
        <ele>2355</ele>
        <time>2015-05-08T07:00:05Z</time>
      </trkpt>
      <trkpt lat="42.88958" lon="0.12928">
        <ele>2357</ele>
        <time>2015-05-08T07:00:18Z</time>
      </trkpt>
      <trkpt lat="42.88949" lon="0.1293">
        <ele>2360</ele>
        <time>2015-05-08T07:00:36Z</time>
      </trkpt>
      <trkpt lat="42.88941" lon="0.12934">
        <ele>2363</ele>
        <time>2015-05-08T07:00:50Z</time>
      </trkpt>
      <trkpt lat="42.8893" lon="0.1294">
        <ele>2365</ele>
        <time>2015-05-08T07:01:07Z</time>
      </trkpt>
      <trkpt lat="42.88921" lon="0.12949">
        <ele>2368</ele>
        <time>2015-05-08T07:01:24Z</time>
      </trkpt>
      <trkpt lat="42.88911" lon="0.12963">
        <ele>2372</ele>
        <time>2015-05-08T07:01:42Z</time>
      </trkpt>
      <trkpt lat="42.88904" lon="0.12976">
        <ele>2374</ele>
        <time>2015-05-08T07:01:57Z</time>
      </trkpt>
      <trkpt lat="42.88903" lon="0.12981">
        <ele>2376</ele>
        <time>2015-05-08T07:02:09Z</time>
      </trkpt>
      <trkpt lat="42.88899" lon="0.12977">
        <ele>2377</ele>
        <time>2015-05-08T07:02:26Z</time>
      </trkpt>
      <trkpt lat="42.88888" lon="0.12974">
        <ele>2379</ele>
        <time>2015-05-08T07:02:41Z</time>
      </trkpt>
      <trkpt lat="42.8888" lon="0.12989">
        <ele>2382</ele>
        <time>2015-05-08T07:02:56Z</time>
      </trkpt>
      <trkpt lat="42.88873" lon="0.12988">
        <ele>2385</ele>
        <time>2015-05-08T07:03:07Z</time>
      </trkpt>
      <trkpt lat="42.88865" lon="0.12984">
        <ele>2386</ele>
        <time>2015-05-08T07:03:19Z</time>
      </trkpt>
      <trkpt lat="42.88859" lon="0.12984">
        <ele>2389</ele>
        <time>2015-05-08T07:03:28Z</time>
      </trkpt>
      <trkpt lat="42.88857" lon="0.12986">
        <ele>2390</ele>
        <time>2015-05-08T07:03:33Z</time>
      </trkpt>
      <trkpt lat="42.88855" lon="0.12986">
        <ele>2391</ele>
        <time>2015-05-08T07:03:36Z</time>
      </trkpt>
      <trkpt lat="42.88854" lon="0.12987">
        <ele>2393</ele>
        <time>2015-05-08T07:03:41Z</time>
      </trkpt>
      <trkpt lat="42.88853" lon="0.1299">
        <ele>2394</ele>
        <time>2015-05-08T07:03:56Z</time>
      </trkpt>
      <trkpt lat="42.88855" lon="0.12989">
        <ele>2393</ele>
        <time>2015-05-08T07:04:07Z</time>
      </trkpt>
      <trkpt lat="42.88856" lon="0.12989">
        <ele>2393</ele>
        <time>2015-05-08T07:04:11Z</time>
      </trkpt>
      <trkpt lat="42.88858" lon="0.12992">
        <ele>2390</ele>
        <time>2015-05-08T07:04:15Z</time>
      </trkpt>
      <trkpt lat="42.88858" lon="0.12994">
        <ele>2390</ele>
        <time>2015-05-08T07:04:22Z</time>
      </trkpt>
      <trkpt lat="42.88859" lon="0.12993">
        <ele>2390</ele>
        <time>2015-05-08T07:04:24Z</time>
      </trkpt>
      <trkpt lat="42.88862" lon="0.12989">
        <ele>2389</ele>
        <time>2015-05-08T07:04:27Z</time>
      </trkpt>
      <trkpt lat="42.88862" lon="0.12976">
        <ele>2388</ele>
        <time>2015-05-08T07:04:39Z</time>
      </trkpt>
      <trkpt lat="42.88861" lon="0.12974">
        <ele>2388</ele>
        <time>2015-05-08T07:04:54Z</time>
      </trkpt>
      <trkpt lat="42.88861" lon="0.1297">
        <ele>2388</ele>
        <time>2015-05-08T07:05:21Z</time>
      </trkpt>
      <trkpt lat="42.88862" lon="0.12975">
        <ele>2389</ele>
        <time>2015-05-08T07:05:38Z</time>
      </trkpt>
      <trkpt lat="42.8886" lon="0.12976">
        <ele>2390</ele>
        <time>2015-05-08T07:05:58Z</time>
      </trkpt>
      <trkpt lat="42.88859" lon="0.1298">
        <ele>2391</ele>
        <time>2015-05-08T07:06:01Z</time>
      </trkpt>
      <trkpt lat="42.88859" lon="0.1299">
        <ele>2393</ele>
        <time>2015-05-08T07:06:08Z</time>
      </trkpt>
      <trkpt lat="42.88859" lon="0.12993">
        <ele>2391</ele>
        <time>2015-05-08T07:06:11Z</time>
      </trkpt>
      <trkpt lat="42.88861" lon="0.13005">
        <ele>2394</ele>
        <time>2015-05-08T07:06:22Z</time>
      </trkpt>
      <trkpt lat="42.8886" lon="0.13016">
        <ele>2398</ele>
        <time>2015-05-08T07:06:33Z</time>
      </trkpt>
      <trkpt lat="42.8886" lon="0.13017">
        <ele>2398</ele>
        <time>2015-05-08T07:06:34Z</time>
      </trkpt>
      <trkpt lat="42.8886" lon="0.13026">
        <ele>2401</ele>
        <time>2015-05-08T07:06:45Z</time>
      </trkpt>
      <trkpt lat="42.8886" lon="0.13031">
        <ele>2399</ele>
        <time>2015-05-08T07:06:51Z</time>
      </trkpt>
      <trkpt lat="42.88861" lon="0.13038">
        <ele>2403</ele>
        <time>2015-05-08T07:06:59Z</time>
      </trkpt>
      <trkpt lat="42.88861" lon="0.1304">
        <ele>2404</ele>
        <time>2015-05-08T07:07:01Z</time>
      </trkpt>
      <trkpt lat="42.8886" lon="0.13043">
        <ele>2406</ele>
        <time>2015-05-08T07:07:04Z</time>
      </trkpt>
      <trkpt lat="42.8886" lon="0.13045">
        <ele>2411</ele>
        <time>2015-05-08T07:07:06Z</time>
      </trkpt>
      <trkpt lat="42.88859" lon="0.13059">
        <ele>2414</ele>
        <time>2015-05-08T07:07:19Z</time>
      </trkpt>
      <trkpt lat="42.88858" lon="0.13062">
        <ele>2418</ele>
        <time>2015-05-08T07:07:26Z</time>
      </trkpt>
      <trkpt lat="42.88858" lon="0.13061">
        <ele>2414</ele>
        <time>2015-05-08T07:07:32Z</time>
      </trkpt>
      <trkpt lat="42.88858" lon="0.13061">
        <ele>2414</ele>
        <time>2015-05-08T07:07:33Z</time>
      </trkpt>
      <trkpt lat="42.88857" lon="0.13061">
        <ele>2416</ele>
        <time>2015-05-08T07:07:36Z</time>
      </trkpt>
      <trkpt lat="42.88858" lon="0.1306">
        <ele>2415</ele>
        <time>2015-05-08T07:07:38Z</time>
      </trkpt>
      <trkpt lat="42.88856" lon="0.13049">
        <ele>2412</ele>
        <time>2015-05-08T07:07:52Z</time>
      </trkpt>
      <trkpt lat="42.88856" lon="0.13048">
        <ele>2412</ele>
        <time>2015-05-08T07:07:53Z</time>
      </trkpt>
      <trkpt lat="42.88857" lon="0.13045">
        <ele>2405</ele>
        <time>2015-05-08T07:07:56Z</time>
      </trkpt>
      <trkpt lat="42.88859" lon="0.13045">
        <ele>2404</ele>
        <time>2015-05-08T07:07:58Z</time>
      </trkpt>
      <trkpt lat="42.88866" lon="0.13049">
        <ele>2404</ele>
        <time>2015-05-08T07:08:07Z</time>
      </trkpt>
      <trkpt lat="42.8887" lon="0.13045">
        <ele>2401</ele>
        <time>2015-05-08T07:08:19Z</time>
      </trkpt>
      <trkpt lat="42.8887" lon="0.13045">
        <ele>2400</ele>
        <time>2015-05-08T07:08:28Z</time>
      </trkpt>
      <trkpt lat="42.8887" lon="0.13043">
        <ele>2399</ele>
        <time>2015-05-08T07:08:42Z</time>
      </trkpt>
      <trkpt lat="42.88871" lon="0.13042">
        <ele>2400</ele>
        <time>2015-05-08T07:08:54Z</time>
      </trkpt>
      <trkpt lat="42.88871" lon="0.13042">
        <ele>2398</ele>
        <time>2015-05-08T07:08:59Z</time>
      </trkpt>
      <trkpt lat="42.88872" lon="0.13041">
        <ele>2401</ele>
        <time>2015-05-08T07:09:07Z</time>
      </trkpt>
      <trkpt lat="42.88872" lon="0.13042">
        <ele>2400</ele>
        <time>2015-05-08T07:09:14Z</time>
      </trkpt>
      <trkpt lat="42.8887" lon="0.13042">
        <ele>2398</ele>
        <time>2015-05-08T07:09:23Z</time>
      </trkpt>
      <trkpt lat="42.88869" lon="0.1304">
        <ele>2401</ele>
        <time>2015-05-08T07:09:35Z</time>
      </trkpt>
      <trkpt lat="42.88869" lon="0.1304">
        <ele>2398</ele>
        <time>2015-05-08T07:09:41Z</time>
      </trkpt>
      <trkpt lat="42.8887" lon="0.1304">
        <ele>2398</ele>
        <time>2015-05-08T07:09:42Z</time>
      </trkpt>
      <trkpt lat="42.8887" lon="0.1304">
        <ele>2401</ele>
        <time>2015-05-08T07:09:44Z</time>
      </trkpt>
      <trkpt lat="42.8887" lon="0.1304">
        <ele>2400</ele>
        <time>2015-05-08T07:09:45Z</time>
      </trkpt>
      <trkpt lat="42.8887" lon="0.1304">
        <ele>2398</ele>
        <time>2015-05-08T07:09:47Z</time>
      </trkpt>
      <trkpt lat="42.8887" lon="0.1304">
        <ele>2397</ele>
        <time>2015-05-08T07:10:02Z</time>
      </trkpt>
      <trkpt lat="42.8887" lon="0.13039">
        <ele>2399</ele>
        <time>2015-05-08T07:10:06Z</time>
      </trkpt>
      <trkpt lat="42.88869" lon="0.13039">
        <ele>2399</ele>
        <time>2015-05-08T07:10:34Z</time>
      </trkpt>
      <trkpt lat="42.8887" lon="0.13039">
        <ele>2399</ele>
        <time>2015-05-08T07:10:35Z</time>
      </trkpt>
      <trkpt lat="42.88869" lon="0.1304">
        <ele>2397</ele>
        <time>2015-05-08T07:10:42Z</time>
      </trkpt>
      <trkpt lat="42.88869" lon="0.13041">
        <ele>2400</ele>
        <time>2015-05-08T07:10:57Z</time>
      </trkpt>
      <trkpt lat="42.88869" lon="0.13041">
        <ele>2400</ele>
        <time>2015-05-08T07:10:58Z</time>
      </trkpt>
      <trkpt lat="42.88869" lon="0.1304">
        <ele>2397</ele>
        <time>2015-05-08T07:11:16Z</time>
      </trkpt>
      <trkpt lat="42.88869" lon="0.13041">
        <ele>2399</ele>
        <time>2015-05-08T07:11:50Z</time>
      </trkpt>
      <trkpt lat="42.88869" lon="0.13042">
        <ele>2398</ele>
        <time>2015-05-08T07:12:19Z</time>
      </trkpt>
      <trkpt lat="42.88869" lon="0.13039">
        <ele>2398</ele>
        <time>2015-05-08T07:12:52Z</time>
      </trkpt>
      <trkpt lat="42.8887" lon="0.1304">
        <ele>2401</ele>
        <time>2015-05-08T07:13:17Z</time>
      </trkpt>
      <trkpt lat="42.8887" lon="0.1304">
        <ele>2397</ele>
        <time>2015-05-08T07:13:40Z</time>
      </trkpt>
      <trkpt lat="42.8887" lon="0.1304">
        <ele>2399</ele>
        <time>2015-05-08T07:13:56Z</time>
      </trkpt>
      <trkpt lat="42.8887" lon="0.1304">
        <ele>2397</ele>
        <time>2015-05-08T07:14:04Z</time>
      </trkpt>
      <trkpt lat="42.8887" lon="0.1304">
        <ele>2398</ele>
        <time>2015-05-08T07:14:06Z</time>
      </trkpt>
      <trkpt lat="42.8887" lon="0.13038">
        <ele>2400</ele>
        <time>2015-05-08T07:14:16Z</time>
      </trkpt>
      <trkpt lat="42.8887" lon="0.13038">
        <ele>2398</ele>
        <time>2015-05-08T07:14:19Z</time>
      </trkpt>
      <trkpt lat="42.8887" lon="0.13039">
        <ele>2400</ele>
        <time>2015-05-08T07:14:42Z</time>
      </trkpt>
      <trkpt lat="42.88869" lon="0.1304">
        <ele>2401</ele>
        <time>2015-05-08T07:15:09Z</time>
      </trkpt>
      <trkpt lat="42.88869" lon="0.1304">
        <ele>2399</ele>
        <time>2015-05-08T07:15:13Z</time>
      </trkpt>
      <trkpt lat="42.88869" lon="0.13042">
        <ele>2399</ele>
        <time>2015-05-08T07:15:47Z</time>
      </trkpt>
      <trkpt lat="42.88869" lon="0.13043">
        <ele>2399</ele>
        <time>2015-05-08T07:16:23Z</time>
      </trkpt>
      <trkpt lat="42.88871" lon="0.13044">
        <ele>2401</ele>
        <time>2015-05-08T07:16:33Z</time>
      </trkpt>
      <trkpt lat="42.88872" lon="0.13041">
        <ele>2401</ele>
        <time>2015-05-08T07:16:47Z</time>
      </trkpt>
      <trkpt lat="42.88871" lon="0.1304">
        <ele>2402</ele>
        <time>2015-05-08T07:17:02Z</time>
      </trkpt>
      <trkpt lat="42.8887" lon="0.1304">
        <ele>2401</ele>
        <time>2015-05-08T07:17:13Z</time>
      </trkpt>
      <trkpt lat="42.8887" lon="0.13042">
        <ele>2401</ele>
        <time>2015-05-08T07:17:32Z</time>
      </trkpt>
      <trkpt lat="42.88871" lon="0.13044">
        <ele>2399</ele>
        <time>2015-05-08T07:17:52Z</time>
      </trkpt>
      <trkpt lat="42.88872" lon="0.13045">
        <ele>2399</ele>
        <time>2015-05-08T07:18:15Z</time>
      </trkpt>
      <trkpt lat="42.8887" lon="0.13045">
        <ele>2400</ele>
        <time>2015-05-08T07:18:26Z</time>
      </trkpt>
      <trkpt lat="42.8887" lon="0.13046">
        <ele>2401</ele>
        <time>2015-05-08T07:18:27Z</time>
      </trkpt>
      <trkpt lat="42.88869" lon="0.13054">
        <ele>2400</ele>
        <time>2015-05-08T07:18:44Z</time>
      </trkpt>
      <trkpt lat="42.8887" lon="0.13055">
        <ele>2400</ele>
        <time>2015-05-08T07:19:08Z</time>
      </trkpt>
      <trkpt lat="42.8887" lon="0.13055">
        <ele>2401</ele>
        <time>2015-05-08T07:19:18Z</time>
      </trkpt>
      <trkpt lat="42.88869" lon="0.13054">
        <ele>2402</ele>
        <time>2015-05-08T07:19:20Z</time>
      </trkpt>
      <trkpt lat="42.88867" lon="0.13053">
        <ele>2402</ele>
        <time>2015-05-08T07:19:23Z</time>
      </trkpt>
      <trkpt lat="42.8886" lon="0.13054">
        <ele>2406</ele>
        <time>2015-05-08T07:19:33Z</time>
      </trkpt>
      <trkpt lat="42.88858" lon="0.13055">
        <ele>2407</ele>
        <time>2015-05-08T07:19:35Z</time>
      </trkpt>
      <trkpt lat="42.88856" lon="0.13058">
        <ele>2406</ele>
        <time>2015-05-08T07:19:39Z</time>
      </trkpt>
      <trkpt lat="42.88854" lon="0.13062">
        <ele>2404</ele>
        <time>2015-05-08T07:19:43Z</time>
      </trkpt>
      <trkpt lat="42.8885" lon="0.13075">
        <ele>2401</ele>
        <time>2015-05-08T07:19:54Z</time>
      </trkpt>
      <trkpt lat="42.8885" lon="0.13078">
        <ele>2401</ele>
        <time>2015-05-08T07:20:10Z</time>
      </trkpt>
      <trkpt lat="42.88847" lon="0.13084">
        <ele>2401</ele>
        <time>2015-05-08T07:20:20Z</time>
      </trkpt>
      <trkpt lat="42.88846" lon="0.13086">
        <ele>2401</ele>
        <time>2015-05-08T07:20:34Z</time>
      </trkpt>
      <trkpt lat="42.88848" lon="0.13081">
        <ele>2401</ele>
        <time>2015-05-08T07:20:39Z</time>
      </trkpt>
      <trkpt lat="42.88851" lon="0.13074">
        <ele>2401</ele>
        <time>2015-05-08T07:20:45Z</time>
      </trkpt>
      <trkpt lat="42.88853" lon="0.13066">
        <ele>2405</ele>
        <time>2015-05-08T07:20:51Z</time>
      </trkpt>
      <trkpt lat="42.88859" lon="0.13054">
        <ele>2404</ele>
        <time>2015-05-08T07:21:02Z</time>
      </trkpt>
      <trkpt lat="42.88865" lon="0.13052">
        <ele>2402</ele>
        <time>2015-05-08T07:21:09Z</time>
      </trkpt>
      <trkpt lat="42.88868" lon="0.13053">
        <ele>2401</ele>
        <time>2015-05-08T07:21:12Z</time>
      </trkpt>
      <trkpt lat="42.88869" lon="0.13053">
        <ele>2400</ele>
        <time>2015-05-08T07:21:14Z</time>
      </trkpt>
      <trkpt lat="42.8887" lon="0.13052">
        <ele>2399</ele>
        <time>2015-05-08T07:21:26Z</time>
      </trkpt>
      <trkpt lat="42.88871" lon="0.13051">
        <ele>2401</ele>
        <time>2015-05-08T07:21:46Z</time>
      </trkpt>
      <trkpt lat="42.88872" lon="0.13049">
        <ele>2401</ele>
        <time>2015-05-08T07:21:48Z</time>
      </trkpt>
      <trkpt lat="42.8887" lon="0.13043">
        <ele>2401</ele>
        <time>2015-05-08T07:22:00Z</time>
      </trkpt>
      <trkpt lat="42.8887" lon="0.13042">
        <ele>2401</ele>
        <time>2015-05-08T07:22:16Z</time>
      </trkpt>
      <trkpt lat="42.88869" lon="0.13043">
        <ele>2401</ele>
        <time>2015-05-08T07:22:35Z</time>
      </trkpt>
      <trkpt lat="42.88865" lon="0.13043">
        <ele>2407</ele>
        <time>2015-05-08T07:22:44Z</time>
      </trkpt>
      <trkpt lat="42.88865" lon="0.13043">
        <ele>2406</ele>
        <time>2015-05-08T07:22:45Z</time>
      </trkpt>
      <trkpt lat="42.88862" lon="0.13043">
        <ele>2403</ele>
        <time>2015-05-08T07:22:52Z</time>
      </trkpt>
      <trkpt lat="42.88861" lon="0.13043">
        <ele>2404</ele>
        <time>2015-05-08T07:23:06Z</time>
      </trkpt>
      <trkpt lat="42.8886" lon="0.13043">
        <ele>2402</ele>
        <time>2015-05-08T07:23:26Z</time>
      </trkpt>
      <trkpt lat="42.8886" lon="0.13043">
        <ele>2404</ele>
        <time>2015-05-08T07:23:40Z</time>
      </trkpt>
      <trkpt lat="42.88861" lon="0.13043">
        <ele>2403</ele>
        <time>2015-05-08T07:23:58Z</time>
      </trkpt>
      <trkpt lat="42.8886" lon="0.13042">
        <ele>2403</ele>
        <time>2015-05-08T07:24:14Z</time>
      </trkpt>
      <trkpt lat="42.8886" lon="0.13041">
        <ele>2403</ele>
        <time>2015-05-08T07:24:25Z</time>
      </trkpt>
      <trkpt lat="42.88859" lon="0.13038">
        <ele>2403</ele>
        <time>2015-05-08T07:24:27Z</time>
      </trkpt>
      <trkpt lat="42.88861" lon="0.1302">
        <ele>2397</ele>
        <time>2015-05-08T07:24:31Z</time>
      </trkpt>
      <trkpt lat="42.88868" lon="0.13007">
        <ele>2393</ele>
        <time>2015-05-08T07:24:34Z</time>
      </trkpt>
      <trkpt lat="42.88872" lon="0.12997">
        <ele>2389</ele>
        <time>2015-05-08T07:24:36Z</time>
      </trkpt>
      <trkpt lat="42.88878" lon="0.12984">
        <ele>2387</ele>
        <time>2015-05-08T07:24:39Z</time>
      </trkpt>
      <trkpt lat="42.88888" lon="0.1299">
        <ele>2383</ele>
        <time>2015-05-08T07:24:42Z</time>
      </trkpt>
      <trkpt lat="42.88896" lon="0.12977">
        <ele>2381</ele>
        <time>2015-05-08T07:24:46Z</time>
      </trkpt>
      <trkpt lat="42.88901" lon="0.12966">
        <ele>2377</ele>
        <time>2015-05-08T07:24:49Z</time>
      </trkpt>
      <trkpt lat="42.88912" lon="0.12957">
        <ele>2373</ele>
        <time>2015-05-08T07:24:52Z</time>
      </trkpt>
      <trkpt lat="42.88919" lon="0.12945">
        <ele>2372</ele>
        <time>2015-05-08T07:24:54Z</time>
      </trkpt>
      <trkpt lat="42.88928" lon="0.12935">
        <ele>2369</ele>
        <time>2015-05-08T07:24:56Z</time>
      </trkpt>
      <trkpt lat="42.88936" lon="0.12927">
        <ele>2368</ele>
        <time>2015-05-08T07:25:04Z</time>
      </trkpt>
      <trkpt lat="42.88936" lon="0.12924">
        <ele>2368</ele>
        <time>2015-05-08T07:25:16Z</time>
      </trkpt>
      <trkpt lat="42.88942" lon="0.12937">
        <ele>2363</ele>
        <time>2015-05-08T07:25:21Z</time>
      </trkpt>
      <trkpt lat="42.88945" lon="0.12941">
        <ele>2360</ele>
        <time>2015-05-08T07:25:22Z</time>
      </trkpt>
      <trkpt lat="42.88953" lon="0.12947">
        <ele>2355</ele>
        <time>2015-05-08T07:25:24Z</time>
      </trkpt>
      <trkpt lat="42.88957" lon="0.12957">
        <ele>2352</ele>
        <time>2015-05-08T07:25:26Z</time>
      </trkpt>
      <trkpt lat="42.88961" lon="0.1296">
        <ele>2350</ele>
        <time>2015-05-08T07:25:28Z</time>
      </trkpt>
      <trkpt lat="42.88967" lon="0.12964">
        <ele>2347</ele>
        <time>2015-05-08T07:25:30Z</time>
      </trkpt>
      <trkpt lat="42.88974" lon="0.12973">
        <ele>2342</ele>
        <time>2015-05-08T07:25:32Z</time>
      </trkpt>
      <trkpt lat="42.88979" lon="0.12975">
        <ele>2340</ele>
        <time>2015-05-08T07:25:33Z</time>
      </trkpt>
      <trkpt lat="42.8899" lon="0.1299">
        <ele>2332</ele>
        <time>2015-05-08T07:25:36Z</time>
      </trkpt>
      <trkpt lat="42.88996" lon="0.12997">
        <ele>2327</ele>
        <time>2015-05-08T07:25:37Z</time>
      </trkpt>
      <trkpt lat="42.89002" lon="0.13007">
        <ele>2323</ele>
        <time>2015-05-08T07:25:39Z</time>
      </trkpt>
      <trkpt lat="42.89005" lon="0.13016">
        <ele>2319</ele>
        <time>2015-05-08T07:25:40Z</time>
      </trkpt>
      <trkpt lat="42.89009" lon="0.13021">
        <ele>2317</ele>
        <time>2015-05-08T07:25:41Z</time>
      </trkpt>
      <trkpt lat="42.89015" lon="0.13028">
        <ele>2313</ele>
        <time>2015-05-08T07:25:43Z</time>
      </trkpt>
      <trkpt lat="42.89016" lon="0.13039">
        <ele>2309</ele>
        <time>2015-05-08T07:25:45Z</time>
      </trkpt>
      <trkpt lat="42.8903" lon="0.13042">
        <ele>2301</ele>
        <time>2015-05-08T07:25:48Z</time>
      </trkpt>
      <trkpt lat="42.89033" lon="0.13047">
        <ele>2300</ele>
        <time>2015-05-08T07:25:49Z</time>
      </trkpt>
      <trkpt lat="42.89035" lon="0.13053">
        <ele>2298</ele>
        <time>2015-05-08T07:25:50Z</time>
      </trkpt>
      <trkpt lat="42.89044" lon="0.13055">
        <ele>2293</ele>
        <time>2015-05-08T07:25:52Z</time>
      </trkpt>
      <trkpt lat="42.89048" lon="0.13065">
        <ele>2289</ele>
        <time>2015-05-08T07:25:54Z</time>
      </trkpt>
      <trkpt lat="42.8905" lon="0.13073">
        <ele>2286</ele>
        <time>2015-05-08T07:25:56Z</time>
      </trkpt>
      <trkpt lat="42.89053" lon="0.13073">
        <ele>2286</ele>
        <time>2015-05-08T07:25:57Z</time>
      </trkpt>
      <trkpt lat="42.89053" lon="0.13071">
        <ele>2285</ele>
        <time>2015-05-08T07:26:02Z</time>
      </trkpt>
      <trkpt lat="42.8905" lon="0.13064">
        <ele>2284</ele>
        <time>2015-05-08T07:26:14Z</time>
      </trkpt>
      <trkpt lat="42.89039" lon="0.13058">
        <ele>2284</ele>
        <time>2015-05-08T07:26:33Z</time>
      </trkpt>
      <trkpt lat="42.89038" lon="0.13059">
        <ele>2285</ele>
        <time>2015-05-08T07:26:53Z</time>
      </trkpt>
      <trkpt lat="42.89037" lon="0.1306">
        <ele>2284</ele>
        <time>2015-05-08T07:26:59Z</time>
      </trkpt>
      <trkpt lat="42.89038" lon="0.13067">
        <ele>2284</ele>
        <time>2015-05-08T07:27:02Z</time>
      </trkpt>
      <trkpt lat="42.89051" lon="0.13081">
        <ele>2277</ele>
        <time>2015-05-08T07:27:06Z</time>
      </trkpt>
      <trkpt lat="42.89056" lon="0.13087">
        <ele>2274</ele>
        <time>2015-05-08T07:27:08Z</time>
      </trkpt>
      <trkpt lat="42.89056" lon="0.13104">
        <ele>2270</ele>
        <time>2015-05-08T07:27:12Z</time>
      </trkpt>
      <trkpt lat="42.89067" lon="0.13106">
        <ele>2266</ele>
        <time>2015-05-08T07:27:16Z</time>
      </trkpt>
      <trkpt lat="42.89082" lon="0.131">
        <ele>2263</ele>
        <time>2015-05-08T07:27:19Z</time>
      </trkpt>
      <trkpt lat="42.89085" lon="0.13099">
        <ele>2262</ele>
        <time>2015-05-08T07:27:20Z</time>
      </trkpt>
      <trkpt lat="42.89088" lon="0.13111">
        <ele>2257</ele>
        <time>2015-05-08T07:27:24Z</time>
      </trkpt>
      <trkpt lat="42.89086" lon="0.13115">
        <ele>2255</ele>
        <time>2015-05-08T07:27:25Z</time>
      </trkpt>
      <trkpt lat="42.89095" lon="0.13126">
        <ele>2251</ele>
        <time>2015-05-08T07:27:29Z</time>
      </trkpt>
      <trkpt lat="42.89117" lon="0.13123">
        <ele>2249</ele>
        <time>2015-05-08T07:27:35Z</time>
      </trkpt>
      <trkpt lat="42.89129" lon="0.13125">
        <ele>2245</ele>
        <time>2015-05-08T07:27:42Z</time>
      </trkpt>
      <trkpt lat="42.8913" lon="0.13125">
        <ele>2245</ele>
        <time>2015-05-08T07:27:43Z</time>
      </trkpt>
      <trkpt lat="42.89135" lon="0.13127">
        <ele>2244</ele>
        <time>2015-05-08T07:27:46Z</time>
      </trkpt>
      <trkpt lat="42.89136" lon="0.13146">
        <ele>2242</ele>
        <time>2015-05-08T07:28:00Z</time>
      </trkpt>
      <trkpt lat="42.89137" lon="0.13149">
        <ele>2243</ele>
        <time>2015-05-08T07:28:26Z</time>
      </trkpt>
      <trkpt lat="42.89138" lon="0.13152">
        <ele>2244</ele>
        <time>2015-05-08T07:28:41Z</time>
      </trkpt>
      <trkpt lat="42.89138" lon="0.13154">
        <ele>2243</ele>
        <time>2015-05-08T07:29:10Z</time>
      </trkpt>
      <trkpt lat="42.89138" lon="0.13153">
        <ele>2244</ele>
        <time>2015-05-08T07:29:37Z</time>
      </trkpt>
      <trkpt lat="42.89137" lon="0.13156">
        <ele>2244</ele>
        <time>2015-05-08T07:30:04Z</time>
      </trkpt>
      <trkpt lat="42.89138" lon="0.1318">
        <ele>2245</ele>
        <time>2015-05-08T07:30:11Z</time>
      </trkpt>
      <trkpt lat="42.89143" lon="0.13206">
        <ele>2240</ele>
        <time>2015-05-08T07:30:15Z</time>
      </trkpt>
      <trkpt lat="42.89152" lon="0.13212">
        <ele>2236</ele>
        <time>2015-05-08T07:30:17Z</time>
      </trkpt>
      <trkpt lat="42.89172" lon="0.13217">
        <ele>2231</ele>
        <time>2015-05-08T07:30:21Z</time>
      </trkpt>
      <trkpt lat="42.89181" lon="0.1322">
        <ele>2228</ele>
        <time>2015-05-08T07:30:23Z</time>
      </trkpt>
      <trkpt lat="42.89188" lon="0.13241">
        <ele>2227</ele>
        <time>2015-05-08T07:30:26Z</time>
      </trkpt>
      <trkpt lat="42.89191" lon="0.1327">
        <ele>2221</ele>
        <time>2015-05-08T07:30:30Z</time>
      </trkpt>
      <trkpt lat="42.89192" lon="0.13283">
        <ele>2219</ele>
        <time>2015-05-08T07:30:32Z</time>
      </trkpt>
      <trkpt lat="42.89192" lon="0.13306">
        <ele>2215</ele>
        <time>2015-05-08T07:30:35Z</time>
      </trkpt>
      <trkpt lat="42.89198" lon="0.13328">
        <ele>2211</ele>
        <time>2015-05-08T07:30:38Z</time>
      </trkpt>
      <trkpt lat="42.89201" lon="0.13333">
        <ele>2211</ele>
        <time>2015-05-08T07:30:39Z</time>
      </trkpt>
      <trkpt lat="42.89212" lon="0.13343">
        <ele>2209</ele>
        <time>2015-05-08T07:30:42Z</time>
      </trkpt>
      <trkpt lat="42.8922" lon="0.13343">
        <ele>2206</ele>
        <time>2015-05-08T07:30:49Z</time>
      </trkpt>
      <trkpt lat="42.8922" lon="0.13344">
        <ele>2206</ele>
        <time>2015-05-08T07:30:53Z</time>
      </trkpt>
      <trkpt lat="42.89218" lon="0.13357">
        <ele>2204</ele>
        <time>2015-05-08T07:30:59Z</time>
      </trkpt>
      <trkpt lat="42.89206" lon="0.1338">
        <ele>2201</ele>
        <time>2015-05-08T07:31:08Z</time>
      </trkpt>
      <trkpt lat="42.89207" lon="0.13384">
        <ele>2200</ele>
        <time>2015-05-08T07:31:13Z</time>
      </trkpt>
      <trkpt lat="42.89208" lon="0.13406">
        <ele>2196</ele>
        <time>2015-05-08T07:31:20Z</time>
      </trkpt>
      <trkpt lat="42.89211" lon="0.13434">
        <ele>2194</ele>
        <time>2015-05-08T07:31:31Z</time>
      </trkpt>
      <trkpt lat="42.89211" lon="0.13435">
        <ele>2194</ele>
        <time>2015-05-08T07:31:43Z</time>
      </trkpt>
      <trkpt lat="42.89219" lon="0.13439">
        <ele>2191</ele>
        <time>2015-05-08T07:31:48Z</time>
      </trkpt>
      <trkpt lat="42.89225" lon="0.13442">
        <ele>2188</ele>
        <time>2015-05-08T07:31:50Z</time>
      </trkpt>
      <trkpt lat="42.89227" lon="0.13445">
        <ele>2184</ele>
        <time>2015-05-08T07:31:51Z</time>
      </trkpt>
      <trkpt lat="42.89234" lon="0.1344">
        <ele>2180</ele>
        <time>2015-05-08T07:31:53Z</time>
      </trkpt>
      <trkpt lat="42.89244" lon="0.13438">
        <ele>2177</ele>
        <time>2015-05-08T07:31:55Z</time>
      </trkpt>
      <trkpt lat="42.89257" lon="0.1343">
        <ele>2173</ele>
        <time>2015-05-08T07:31:58Z</time>
      </trkpt>
      <trkpt lat="42.89279" lon="0.13433">
        <ele>2168</ele>
        <time>2015-05-08T07:32:03Z</time>
      </trkpt>
      <trkpt lat="42.89283" lon="0.1342">
        <ele>2163</ele>
        <time>2015-05-08T07:32:05Z</time>
      </trkpt>
      <trkpt lat="42.89294" lon="0.13413">
        <ele>2157</ele>
        <time>2015-05-08T07:32:08Z</time>
      </trkpt>
      <trkpt lat="42.89304" lon="0.13401">
        <ele>2151</ele>
        <time>2015-05-08T07:32:11Z</time>
      </trkpt>
      <trkpt lat="42.89312" lon="0.13389">
        <ele>2146</ele>
        <time>2015-05-08T07:32:14Z</time>
      </trkpt>
      <trkpt lat="42.89332" lon="0.13359">
        <ele>2140</ele>
        <time>2015-05-08T07:32:19Z</time>
      </trkpt>
      <trkpt lat="42.89339" lon="0.13356">
        <ele>2139</ele>
        <time>2015-05-08T07:32:20Z</time>
      </trkpt>
      <trkpt lat="42.89358" lon="0.13351">
        <ele>2136</ele>
        <time>2015-05-08T07:32:24Z</time>
      </trkpt>
      <trkpt lat="42.89366" lon="0.13349">
        <ele>2136</ele>
        <time>2015-05-08T07:32:26Z</time>
      </trkpt>
      <trkpt lat="42.89375" lon="0.13348">
        <ele>2135</ele>
        <time>2015-05-08T07:32:28Z</time>
      </trkpt>
      <trkpt lat="42.89385" lon="0.1335">
        <ele>2134</ele>
        <time>2015-05-08T07:32:30Z</time>
      </trkpt>
      <trkpt lat="42.89399" lon="0.13356">
        <ele>2132</ele>
        <time>2015-05-08T07:32:33Z</time>
      </trkpt>
      <trkpt lat="42.89416" lon="0.13364">
        <ele>2128</ele>
        <time>2015-05-08T07:32:37Z</time>
      </trkpt>
      <trkpt lat="42.8942" lon="0.13366">
        <ele>2128</ele>
        <time>2015-05-08T07:32:38Z</time>
      </trkpt>
      <trkpt lat="42.89424" lon="0.13367">
        <ele>2128</ele>
        <time>2015-05-08T07:32:39Z</time>
      </trkpt>
      <trkpt lat="42.89437" lon="0.13366">
        <ele>2127</ele>
        <time>2015-05-08T07:32:42Z</time>
      </trkpt>
      <trkpt lat="42.89461" lon="0.13387">
        <ele>2122</ele>
        <time>2015-05-08T07:32:47Z</time>
      </trkpt>
      <trkpt lat="42.89473" lon="0.13386">
        <ele>2116</ele>
        <time>2015-05-08T07:32:49Z</time>
      </trkpt>
      <trkpt lat="42.89487" lon="0.134">
        <ele>2112</ele>
        <time>2015-05-08T07:32:52Z</time>
      </trkpt>
      <trkpt lat="42.89492" lon="0.13404">
        <ele>2109</ele>
        <time>2015-05-08T07:32:53Z</time>
      </trkpt>
      <trkpt lat="42.89501" lon="0.13404">
        <ele>2106</ele>
        <time>2015-05-08T07:32:55Z</time>
      </trkpt>
      <trkpt lat="42.89504" lon="0.13406">
        <ele>2104</ele>
        <time>2015-05-08T07:33:01Z</time>
      </trkpt>
      <trkpt lat="42.89503" lon="0.13414">
        <ele>2105</ele>
        <time>2015-05-08T07:33:04Z</time>
      </trkpt>
      <trkpt lat="42.89511" lon="0.1343">
        <ele>2102</ele>
        <time>2015-05-08T07:33:08Z</time>
      </trkpt>
      <trkpt lat="42.89517" lon="0.13448">
        <ele>2098</ele>
        <time>2015-05-08T07:33:11Z</time>
      </trkpt>
      <trkpt lat="42.89525" lon="0.13457">
        <ele>2094</ele>
        <time>2015-05-08T07:33:13Z</time>
      </trkpt>
      <trkpt lat="42.89532" lon="0.13467">
        <ele>2091</ele>
        <time>2015-05-08T07:33:15Z</time>
      </trkpt>
      <trkpt lat="42.89545" lon="0.13478">
        <ele>2089</ele>
        <time>2015-05-08T07:33:18Z</time>
      </trkpt>
      <trkpt lat="42.8956" lon="0.13486">
        <ele>2082</ele>
        <time>2015-05-08T07:33:21Z</time>
      </trkpt>
      <trkpt lat="42.89565" lon="0.13485">
        <ele>2082</ele>
        <time>2015-05-08T07:33:22Z</time>
      </trkpt>
      <trkpt lat="42.89578" lon="0.13499">
        <ele>2078</ele>
        <time>2015-05-08T07:33:25Z</time>
      </trkpt>
      <trkpt lat="42.89598" lon="0.13515">
        <ele>2075</ele>
        <time>2015-05-08T07:33:30Z</time>
      </trkpt>
      <trkpt lat="42.89598" lon="0.1352">
        <ele>2076</ele>
        <time>2015-05-08T07:33:40Z</time>
      </trkpt>
      <trkpt lat="42.89603" lon="0.13521">
        <ele>2078</ele>
        <time>2015-05-08T07:33:48Z</time>
      </trkpt>
      <trkpt lat="42.89605" lon="0.13522">
        <ele>2077</ele>
        <time>2015-05-08T07:33:57Z</time>
      </trkpt>
      <trkpt lat="42.89607" lon="0.13523">
        <ele>2078</ele>
        <time>2015-05-08T07:34:12Z</time>
      </trkpt>
      <trkpt lat="42.89607" lon="0.13524">
        <ele>2078</ele>
        <time>2015-05-08T07:34:28Z</time>
      </trkpt>
      <trkpt lat="42.89608" lon="0.13525">
        <ele>2077</ele>
        <time>2015-05-08T07:34:42Z</time>
      </trkpt>
      <trkpt lat="42.89607" lon="0.13525">
        <ele>2078</ele>
        <time>2015-05-08T07:34:56Z</time>
      </trkpt>
      <trkpt lat="42.89608" lon="0.13523">
        <ele>2078</ele>
        <time>2015-05-08T07:35:11Z</time>
      </trkpt>
      <trkpt lat="42.89608" lon="0.13527">
        <ele>2077</ele>
        <time>2015-05-08T07:35:34Z</time>
      </trkpt>
      <trkpt lat="42.8961" lon="0.13528">
        <ele>2078</ele>
        <time>2015-05-08T07:35:54Z</time>
      </trkpt>
      <trkpt lat="42.8961" lon="0.13529">
        <ele>2077</ele>
        <time>2015-05-08T07:36:22Z</time>
      </trkpt>
      <trkpt lat="42.89611" lon="0.13527">
        <ele>2078</ele>
        <time>2015-05-08T07:36:40Z</time>
      </trkpt>
      <trkpt lat="42.89612" lon="0.13526">
        <ele>2078</ele>
        <time>2015-05-08T07:36:58Z</time>
      </trkpt>
      <trkpt lat="42.89611" lon="0.13528">
        <ele>2078</ele>
        <time>2015-05-08T07:37:20Z</time>
      </trkpt>
      <trkpt lat="42.8961" lon="0.13527">
        <ele>2077</ele>
        <time>2015-05-08T07:37:37Z</time>
      </trkpt>
      <trkpt lat="42.89608" lon="0.13526">
        <ele>2077</ele>
        <time>2015-05-08T07:37:53Z</time>
      </trkpt>
      <trkpt lat="42.89607" lon="0.13526">
        <ele>2077</ele>
        <time>2015-05-08T07:38:11Z</time>
      </trkpt>
      <trkpt lat="42.8961" lon="0.13526">
        <ele>2077</ele>
        <time>2015-05-08T07:38:29Z</time>
      </trkpt>
      <trkpt lat="42.8961" lon="0.13527">
        <ele>2077</ele>
        <time>2015-05-08T07:38:42Z</time>
      </trkpt>
      <trkpt lat="42.8961" lon="0.13527">
        <ele>2078</ele>
        <time>2015-05-08T07:39:00Z</time>
      </trkpt>
      <trkpt lat="42.8961" lon="0.13525">
        <ele>2079</ele>
        <time>2015-05-08T07:39:12Z</time>
      </trkpt>
      <trkpt lat="42.8961" lon="0.13526">
        <ele>2078</ele>
        <time>2015-05-08T07:39:31Z</time>
      </trkpt>
      <trkpt lat="42.89608" lon="0.13528">
        <ele>2076</ele>
        <time>2015-05-08T07:39:42Z</time>
      </trkpt>
      <trkpt lat="42.89608" lon="0.13533">
        <ele>2076</ele>
        <time>2015-05-08T07:40:11Z</time>
      </trkpt>
      <trkpt lat="42.89608" lon="0.13531">
        <ele>2077</ele>
        <time>2015-05-08T07:40:20Z</time>
      </trkpt>
      <trkpt lat="42.89606" lon="0.13529">
        <ele>2077</ele>
        <time>2015-05-08T07:40:34Z</time>
      </trkpt>
      <trkpt lat="42.89607" lon="0.13528">
        <ele>2077</ele>
        <time>2015-05-08T07:40:50Z</time>
      </trkpt>
      <trkpt lat="42.8961" lon="0.1353">
        <ele>2076</ele>
        <time>2015-05-08T07:41:02Z</time>
      </trkpt>
      <trkpt lat="42.8961" lon="0.13528">
        <ele>2077</ele>
        <time>2015-05-08T07:41:25Z</time>
      </trkpt>
      <trkpt lat="42.8961" lon="0.13529">
        <ele>2077</ele>
        <time>2015-05-08T07:41:42Z</time>
      </trkpt>
      <trkpt lat="42.89611" lon="0.13528">
        <ele>2080</ele>
        <time>2015-05-08T07:41:55Z</time>
      </trkpt>
      <trkpt lat="42.89611" lon="0.13529">
        <ele>2079</ele>
        <time>2015-05-08T07:41:56Z</time>
      </trkpt>
      <trkpt lat="42.89611" lon="0.1353">
        <ele>2077</ele>
        <time>2015-05-08T07:42:03Z</time>
      </trkpt>
      <trkpt lat="42.89611" lon="0.13531">
        <ele>2077</ele>
        <time>2015-05-08T07:42:13Z</time>
      </trkpt>
      <trkpt lat="42.89609" lon="0.1353">
        <ele>2076</ele>
        <time>2015-05-08T07:42:27Z</time>
      </trkpt>
      <trkpt lat="42.89609" lon="0.1353">
        <ele>2076</ele>
        <time>2015-05-08T07:42:28Z</time>
      </trkpt>
      <trkpt lat="42.89608" lon="0.13536">
        <ele>2077</ele>
        <time>2015-05-08T07:42:42Z</time>
      </trkpt>
      <trkpt lat="42.89604" lon="0.13544">
        <ele>2077</ele>
        <time>2015-05-08T07:42:54Z</time>
      </trkpt>
      <trkpt lat="42.89598" lon="0.13554">
        <ele>2078</ele>
        <time>2015-05-08T07:43:04Z</time>
      </trkpt>
      <trkpt lat="42.89593" lon="0.1356">
        <ele>2078</ele>
        <time>2015-05-08T07:43:13Z</time>
      </trkpt>
      <trkpt lat="42.89583" lon="0.13567">
        <ele>2079</ele>
        <time>2015-05-08T07:43:29Z</time>
      </trkpt>
      <trkpt lat="42.89576" lon="0.13573">
        <ele>2083</ele>
        <time>2015-05-08T07:43:44Z</time>
      </trkpt>
      <trkpt lat="42.89569" lon="0.13577">
        <ele>2084</ele>
        <time>2015-05-08T07:43:56Z</time>
      </trkpt>
      <trkpt lat="42.89561" lon="0.13581">
        <ele>2086</ele>
        <time>2015-05-08T07:44:09Z</time>
      </trkpt>
      <trkpt lat="42.89558" lon="0.13582">
        <ele>2088</ele>
        <time>2015-05-08T07:44:14Z</time>
      </trkpt>
      <trkpt lat="42.89553" lon="0.13584">
        <ele>2088</ele>
        <time>2015-05-08T07:44:28Z</time>
      </trkpt>
      <trkpt lat="42.89541" lon="0.13592">
        <ele>2091</ele>
        <time>2015-05-08T07:44:45Z</time>
      </trkpt>
      <trkpt lat="42.89533" lon="0.13599">
        <ele>2093</ele>
        <time>2015-05-08T07:45:00Z</time>
      </trkpt>
      <trkpt lat="42.89528" lon="0.13603">
        <ele>2095</ele>
        <time>2015-05-08T07:45:14Z</time>
      </trkpt>
      <trkpt lat="42.89521" lon="0.13609">
        <ele>2096</ele>
        <time>2015-05-08T07:45:26Z</time>
      </trkpt>
      <trkpt lat="42.89515" lon="0.13613">
        <ele>2097</ele>
        <time>2015-05-08T07:45:40Z</time>
      </trkpt>
      <trkpt lat="42.89509" lon="0.1362">
        <ele>2099</ele>
        <time>2015-05-08T07:45:53Z</time>
      </trkpt>
      <trkpt lat="42.895" lon="0.13621">
        <ele>2101</ele>
        <time>2015-05-08T07:46:05Z</time>
      </trkpt>
      <trkpt lat="42.89495" lon="0.1362">
        <ele>2102</ele>
        <time>2015-05-08T07:46:18Z</time>
      </trkpt>
      <trkpt lat="42.89492" lon="0.13639">
        <ele>2105</ele>
        <time>2015-05-08T07:46:39Z</time>
      </trkpt>
      <trkpt lat="42.89496" lon="0.13648">
        <ele>2108</ele>
        <time>2015-05-08T07:46:56Z</time>
      </trkpt>
      <trkpt lat="42.89491" lon="0.13656">
        <ele>2111</ele>
        <time>2015-05-08T07:47:11Z</time>
      </trkpt>
      <trkpt lat="42.89486" lon="0.13658">
        <ele>2112</ele>
        <time>2015-05-08T07:47:27Z</time>
      </trkpt>
      <trkpt lat="42.89481" lon="0.1366">
        <ele>2114</ele>
        <time>2015-05-08T07:47:40Z</time>
      </trkpt>
      <trkpt lat="42.89471" lon="0.13662">
        <ele>2116</ele>
        <time>2015-05-08T07:47:55Z</time>
      </trkpt>
      <trkpt lat="42.8946" lon="0.13664">
        <ele>2118</ele>
        <time>2015-05-08T07:48:12Z</time>
      </trkpt>
      <trkpt lat="42.89457" lon="0.13667">
        <ele>2120</ele>
        <time>2015-05-08T07:48:27Z</time>
      </trkpt>
      <trkpt lat="42.89456" lon="0.13677">
        <ele>2123</ele>
        <time>2015-05-08T07:48:43Z</time>
      </trkpt>
      <trkpt lat="42.89443" lon="0.13679">
        <ele>2125</ele>
        <time>2015-05-08T07:48:59Z</time>
      </trkpt>
      <trkpt lat="42.89429" lon="0.13679">
        <ele>2128</ele>
        <time>2015-05-08T07:49:14Z</time>
      </trkpt>
      <trkpt lat="42.89415" lon="0.13676">
        <ele>2129</ele>
        <time>2015-05-08T07:49:30Z</time>
      </trkpt>
      <trkpt lat="42.89406" lon="0.13679">
        <ele>2132</ele>
        <time>2015-05-08T07:49:45Z</time>
      </trkpt>
      <trkpt lat="42.89399" lon="0.13684">
        <ele>2135</ele>
        <time>2015-05-08T07:49:59Z</time>
      </trkpt>
      <trkpt lat="42.89391" lon="0.13689">
        <ele>2137</ele>
        <time>2015-05-08T07:50:14Z</time>
      </trkpt>
      <trkpt lat="42.89382" lon="0.13695">
        <ele>2140</ele>
        <time>2015-05-08T07:50:30Z</time>
      </trkpt>
      <trkpt lat="42.89375" lon="0.13698">
        <ele>2141</ele>
        <time>2015-05-08T07:50:42Z</time>
      </trkpt>
      <trkpt lat="42.89367" lon="0.13702">
        <ele>2142</ele>
        <time>2015-05-08T07:50:57Z</time>
      </trkpt>
      <trkpt lat="42.89362" lon="0.13713">
        <ele>2146</ele>
        <time>2015-05-08T07:51:12Z</time>
      </trkpt>
      <trkpt lat="42.89362" lon="0.13723">
        <ele>2147</ele>
        <time>2015-05-08T07:51:28Z</time>
      </trkpt>
      <trkpt lat="42.89358" lon="0.13733">
        <ele>2151</ele>
        <time>2015-05-08T07:51:44Z</time>
      </trkpt>
      <trkpt lat="42.8935" lon="0.13735">
        <ele>2152</ele>
        <time>2015-05-08T07:51:56Z</time>
      </trkpt>
      <trkpt lat="42.89342" lon="0.13734">
        <ele>2154</ele>
        <time>2015-05-08T07:52:09Z</time>
      </trkpt>
      <trkpt lat="42.89332" lon="0.13736">
        <ele>2156</ele>
        <time>2015-05-08T07:52:22Z</time>
      </trkpt>
      <trkpt lat="42.89322" lon="0.13739">
        <ele>2158</ele>
        <time>2015-05-08T07:52:36Z</time>
      </trkpt>
      <trkpt lat="42.89312" lon="0.13745">
        <ele>2160</ele>
        <time>2015-05-08T07:52:52Z</time>
      </trkpt>
      <trkpt lat="42.89307" lon="0.13748">
        <ele>2163</ele>
        <time>2015-05-08T07:53:06Z</time>
      </trkpt>
      <trkpt lat="42.893" lon="0.13751">
        <ele>2165</ele>
        <time>2015-05-08T07:53:21Z</time>
      </trkpt>
      <trkpt lat="42.89293" lon="0.13756">
        <ele>2168</ele>
        <time>2015-05-08T07:53:34Z</time>
      </trkpt>
      <trkpt lat="42.89289" lon="0.13759">
        <ele>2170</ele>
        <time>2015-05-08T07:53:46Z</time>
      </trkpt>
      <trkpt lat="42.89281" lon="0.13762">
        <ele>2173</ele>
        <time>2015-05-08T07:54:01Z</time>
      </trkpt>
      <trkpt lat="42.89271" lon="0.13768">
        <ele>2175</ele>
        <time>2015-05-08T07:54:17Z</time>
      </trkpt>
      <trkpt lat="42.89263" lon="0.13773">
        <ele>2177</ele>
        <time>2015-05-08T07:54:30Z</time>
      </trkpt>
      <trkpt lat="42.89253" lon="0.1378">
        <ele>2179</ele>
        <time>2015-05-08T07:54:47Z</time>
      </trkpt>
      <trkpt lat="42.89241" lon="0.13788">
        <ele>2181</ele>
        <time>2015-05-08T07:55:04Z</time>
      </trkpt>
      <trkpt lat="42.89235" lon="0.1379">
        <ele>2182</ele>
        <time>2015-05-08T07:55:12Z</time>
      </trkpt>
      <trkpt lat="42.89224" lon="0.1379">
        <ele>2184</ele>
        <time>2015-05-08T07:55:27Z</time>
      </trkpt>
      <trkpt lat="42.89212" lon="0.13793">
        <ele>2186</ele>
        <time>2015-05-08T07:55:42Z</time>
      </trkpt>
      <trkpt lat="42.89204" lon="0.13789">
        <ele>2188</ele>
        <time>2015-05-08T07:55:59Z</time>
      </trkpt>
      <trkpt lat="42.89202" lon="0.13795">
        <ele>2191</ele>
        <time>2015-05-08T07:56:14Z</time>
      </trkpt>
      <trkpt lat="42.89197" lon="0.13802">
        <ele>2193</ele>
        <time>2015-05-08T07:56:28Z</time>
      </trkpt>
      <trkpt lat="42.89189" lon="0.13805">
        <ele>2196</ele>
        <time>2015-05-08T07:56:43Z</time>
      </trkpt>
      <trkpt lat="42.89186" lon="0.13807">
        <ele>2199</ele>
        <time>2015-05-08T07:56:48Z</time>
      </trkpt>
      <trkpt lat="42.89174" lon="0.13818">
        <ele>2201</ele>
        <time>2015-05-08T07:57:07Z</time>
      </trkpt>
      <trkpt lat="42.89169" lon="0.13825">
        <ele>2201</ele>
        <time>2015-05-08T07:57:16Z</time>
      </trkpt>
      <trkpt lat="42.89152" lon="0.13826">
        <ele>2199</ele>
        <time>2015-05-08T07:57:25Z</time>
      </trkpt>
      <trkpt lat="42.89143" lon="0.13831">
        <ele>2200</ele>
        <time>2015-05-08T07:57:39Z</time>
      </trkpt>
      <trkpt lat="42.89133" lon="0.13836">
        <ele>2203</ele>
        <time>2015-05-08T07:57:54Z</time>
      </trkpt>
      <trkpt lat="42.89121" lon="0.13842">
        <ele>2204</ele>
        <time>2015-05-08T07:58:09Z</time>
      </trkpt>
      <trkpt lat="42.89115" lon="0.13845">
        <ele>2204</ele>
        <time>2015-05-08T07:58:16Z</time>
      </trkpt>
      <trkpt lat="42.89111" lon="0.13846">
        <ele>2204</ele>
        <time>2015-05-08T07:58:20Z</time>
      </trkpt>
      <trkpt lat="42.89095" lon="0.1385">
        <ele>2205</ele>
        <time>2015-05-08T07:58:37Z</time>
      </trkpt>
      <trkpt lat="42.89082" lon="0.13854">
        <ele>2207</ele>
        <time>2015-05-08T07:58:51Z</time>
      </trkpt>
      <trkpt lat="42.89072" lon="0.13854">
        <ele>2209</ele>
        <time>2015-05-08T07:59:07Z</time>
      </trkpt>
      <trkpt lat="42.89062" lon="0.13857">
        <ele>2211</ele>
        <time>2015-05-08T07:59:22Z</time>
      </trkpt>
      <trkpt lat="42.89051" lon="0.13859">
        <ele>2213</ele>
        <time>2015-05-08T07:59:37Z</time>
      </trkpt>
      <trkpt lat="42.89042" lon="0.13859">
        <ele>2215</ele>
        <time>2015-05-08T07:59:51Z</time>
      </trkpt>
      <trkpt lat="42.89031" lon="0.13862">
        <ele>2217</ele>
        <time>2015-05-08T08:00:10Z</time>
      </trkpt>
      <trkpt lat="42.89021" lon="0.13869">
        <ele>2221</ele>
        <time>2015-05-08T08:00:27Z</time>
      </trkpt>
      <trkpt lat="42.89012" lon="0.1388">
        <ele>2221</ele>
        <time>2015-05-08T08:00:43Z</time>
      </trkpt>
      <trkpt lat="42.89005" lon="0.13888">
        <ele>2222</ele>
        <time>2015-05-08T08:00:54Z</time>
      </trkpt>
      <trkpt lat="42.88991" lon="0.139">
        <ele>2224</ele>
        <time>2015-05-08T08:01:13Z</time>
      </trkpt>
      <trkpt lat="42.88979" lon="0.13908">
        <ele>2226</ele>
        <time>2015-05-08T08:01:31Z</time>
      </trkpt>
      <trkpt lat="42.88968" lon="0.13917">
        <ele>2228</ele>
        <time>2015-05-08T08:01:49Z</time>
      </trkpt>
      <trkpt lat="42.88959" lon="0.13926">
        <ele>2231</ele>
        <time>2015-05-08T08:02:05Z</time>
      </trkpt>
      <trkpt lat="42.88957" lon="0.13926">
        <ele>2232</ele>
        <time>2015-05-08T08:02:07Z</time>
      </trkpt>
      <trkpt lat="42.88948" lon="0.13927">
        <ele>2233</ele>
        <time>2015-05-08T08:02:21Z</time>
      </trkpt>
      <trkpt lat="42.88939" lon="0.13926">
        <ele>2236</ele>
        <time>2015-05-08T08:02:36Z</time>
      </trkpt>
      <trkpt lat="42.88936" lon="0.13928">
        <ele>2237</ele>
        <time>2015-05-08T08:02:42Z</time>
      </trkpt>
      <trkpt lat="42.88929" lon="0.13931">
        <ele>2240</ele>
        <time>2015-05-08T08:03:01Z</time>
      </trkpt>
      <trkpt lat="42.88917" lon="0.13933">
        <ele>2243</ele>
        <time>2015-05-08T08:03:20Z</time>
      </trkpt>
      <trkpt lat="42.88907" lon="0.13933">
        <ele>2245</ele>
        <time>2015-05-08T08:03:34Z</time>
      </trkpt>
      <trkpt lat="42.88904" lon="0.1394">
        <ele>2248</ele>
        <time>2015-05-08T08:03:51Z</time>
      </trkpt>
      <trkpt lat="42.88908" lon="0.1395">
        <ele>2251</ele>
        <time>2015-05-08T08:04:08Z</time>
      </trkpt>
      <trkpt lat="42.88905" lon="0.13952">
        <ele>2252</ele>
        <time>2015-05-08T08:04:20Z</time>
      </trkpt>
      <trkpt lat="42.88897" lon="0.13952">
        <ele>2255</ele>
        <time>2015-05-08T08:04:33Z</time>
      </trkpt>
      <trkpt lat="42.88894" lon="0.13952">
        <ele>2258</ele>
        <time>2015-05-08T08:04:39Z</time>
      </trkpt>
      <trkpt lat="42.88885" lon="0.13952">
        <ele>2258</ele>
        <time>2015-05-08T08:04:52Z</time>
      </trkpt>
      <trkpt lat="42.88876" lon="0.13951">
        <ele>2260</ele>
        <time>2015-05-08T08:05:06Z</time>
      </trkpt>
      <trkpt lat="42.88868" lon="0.1395">
        <ele>2263</ele>
        <time>2015-05-08T08:05:20Z</time>
      </trkpt>
      <trkpt lat="42.8886" lon="0.13955">
        <ele>2264</ele>
        <time>2015-05-08T08:05:38Z</time>
      </trkpt>
      <trkpt lat="42.88849" lon="0.13957">
        <ele>2265</ele>
        <time>2015-05-08T08:05:55Z</time>
      </trkpt>
      <trkpt lat="42.88841" lon="0.13962">
        <ele>2268</ele>
        <time>2015-05-08T08:06:10Z</time>
      </trkpt>
      <trkpt lat="42.88828" lon="0.13968">
        <ele>2271</ele>
        <time>2015-05-08T08:06:28Z</time>
      </trkpt>
      <trkpt lat="42.88827" lon="0.13969">
        <ele>2272</ele>
        <time>2015-05-08T08:06:30Z</time>
      </trkpt>
      <trkpt lat="42.88814" lon="0.13981">
        <ele>2275</ele>
        <time>2015-05-08T08:06:49Z</time>
      </trkpt>
      <trkpt lat="42.88811" lon="0.13982">
        <ele>2276</ele>
        <time>2015-05-08T08:06:53Z</time>
      </trkpt>
      <trkpt lat="42.88804" lon="0.13988">
        <ele>2277</ele>
        <time>2015-05-08T08:07:07Z</time>
      </trkpt>
      <trkpt lat="42.88796" lon="0.13994">
        <ele>2279</ele>
        <time>2015-05-08T08:07:23Z</time>
      </trkpt>
      <trkpt lat="42.88789" lon="0.13999">
        <ele>2282</ele>
        <time>2015-05-08T08:07:35Z</time>
      </trkpt>
      <trkpt lat="42.88786" lon="0.14001">
        <ele>2284</ele>
        <time>2015-05-08T08:07:43Z</time>
      </trkpt>
      <trkpt lat="42.88773" lon="0.14006">
        <ele>2285</ele>
        <time>2015-05-08T08:08:02Z</time>
      </trkpt>
      <trkpt lat="42.88769" lon="0.1401">
        <ele>2288</ele>
        <time>2015-05-08T08:08:14Z</time>
      </trkpt>
      <trkpt lat="42.88764" lon="0.14009">
        <ele>2290</ele>
        <time>2015-05-08T08:08:28Z</time>
      </trkpt>
      <trkpt lat="42.88761" lon="0.14006">
        <ele>2293</ele>
        <time>2015-05-08T08:08:39Z</time>
      </trkpt>
      <trkpt lat="42.88757" lon="0.14013">
        <ele>2293</ele>
        <time>2015-05-08T08:08:53Z</time>
      </trkpt>
      <trkpt lat="42.88755" lon="0.14027">
        <ele>2295</ele>
        <time>2015-05-08T08:09:11Z</time>
      </trkpt>
      <trkpt lat="42.88762" lon="0.14038">
        <ele>2298</ele>
        <time>2015-05-08T08:09:28Z</time>
      </trkpt>
      <trkpt lat="42.88768" lon="0.14045">
        <ele>2301</ele>
        <time>2015-05-08T08:09:43Z</time>
      </trkpt>
      <trkpt lat="42.88771" lon="0.1405">
        <ele>2302</ele>
        <time>2015-05-08T08:09:58Z</time>
      </trkpt>
      <trkpt lat="42.88766" lon="0.14052">
        <ele>2305</ele>
        <time>2015-05-08T08:10:08Z</time>
      </trkpt>
      <trkpt lat="42.88766" lon="0.14052">
        <ele>2305</ele>
        <time>2015-05-08T08:10:09Z</time>
      </trkpt>
      <trkpt lat="42.88761" lon="0.14053">
        <ele>2307</ele>
        <time>2015-05-08T08:10:17Z</time>
      </trkpt>
      <trkpt lat="42.8876" lon="0.14053">
        <ele>2306</ele>
        <time>2015-05-08T08:10:20Z</time>
      </trkpt>
      <trkpt lat="42.88754" lon="0.14055">
        <ele>2308</ele>
        <time>2015-05-08T08:10:36Z</time>
      </trkpt>
      <trkpt lat="42.88745" lon="0.14051">
        <ele>2310</ele>
        <time>2015-05-08T08:10:51Z</time>
      </trkpt>
      <trkpt lat="42.88735" lon="0.14048">
        <ele>2314</ele>
        <time>2015-05-08T08:11:07Z</time>
      </trkpt>
      <trkpt lat="42.88733" lon="0.14042">
        <ele>2316</ele>
        <time>2015-05-08T08:11:22Z</time>
      </trkpt>
      <trkpt lat="42.88738" lon="0.14042">
        <ele>2315</ele>
        <time>2015-05-08T08:11:49Z</time>
      </trkpt>
      <trkpt lat="42.88734" lon="0.1404">
        <ele>2315</ele>
        <time>2015-05-08T08:12:13Z</time>
      </trkpt>
      <trkpt lat="42.88734" lon="0.1404">
        <ele>2316</ele>
        <time>2015-05-08T08:12:28Z</time>
      </trkpt>
      <trkpt lat="42.88733" lon="0.14044">
        <ele>2317</ele>
        <time>2015-05-08T08:12:38Z</time>
      </trkpt>
      <trkpt lat="42.88729" lon="0.14057">
        <ele>2319</ele>
        <time>2015-05-08T08:12:55Z</time>
      </trkpt>
      <trkpt lat="42.8873" lon="0.14069">
        <ele>2321</ele>
        <time>2015-05-08T08:13:12Z</time>
      </trkpt>
      <trkpt lat="42.88729" lon="0.14078">
        <ele>2324</ele>
        <time>2015-05-08T08:13:24Z</time>
      </trkpt>
      <trkpt lat="42.88729" lon="0.14089">
        <ele>2326</ele>
        <time>2015-05-08T08:13:40Z</time>
      </trkpt>
      <trkpt lat="42.8873" lon="0.14089">
        <ele>2327</ele>
        <time>2015-05-08T08:13:57Z</time>
      </trkpt>
      <trkpt lat="42.88733" lon="0.14089">
        <ele>2329</ele>
        <time>2015-05-08T08:14:11Z</time>
      </trkpt>
      <trkpt lat="42.88738" lon="0.14085">
        <ele>2330</ele>
        <time>2015-05-08T08:14:24Z</time>
      </trkpt>
      <trkpt lat="42.88746" lon="0.14074">
        <ele>2332</ele>
        <time>2015-05-08T08:14:43Z</time>
      </trkpt>
      <trkpt lat="42.88737" lon="0.14081">
        <ele>2335</ele>
        <time>2015-05-08T08:14:57Z</time>
      </trkpt>
      <trkpt lat="42.88729" lon="0.14086">
        <ele>2336</ele>
        <time>2015-05-08T08:15:14Z</time>
      </trkpt>
      <trkpt lat="42.88725" lon="0.14089">
        <ele>2338</ele>
        <time>2015-05-08T08:15:27Z</time>
      </trkpt>
      <trkpt lat="42.88715" lon="0.14085">
        <ele>2339</ele>
        <time>2015-05-08T08:15:42Z</time>
      </trkpt>
      <trkpt lat="42.88715" lon="0.1408">
        <ele>2340</ele>
        <time>2015-05-08T08:15:57Z</time>
      </trkpt>
      <trkpt lat="42.88714" lon="0.14085">
        <ele>2341</ele>
        <time>2015-05-08T08:16:11Z</time>
      </trkpt>
      <trkpt lat="42.88713" lon="0.14092">
        <ele>2344</ele>
        <time>2015-05-08T08:16:27Z</time>
      </trkpt>
      <trkpt lat="42.88717" lon="0.14095">
        <ele>2345</ele>
        <time>2015-05-08T08:16:46Z</time>
      </trkpt>
      <trkpt lat="42.88713" lon="0.14097">
        <ele>2346</ele>
        <time>2015-05-08T08:17:14Z</time>
      </trkpt>
      <trkpt lat="42.88711" lon="0.141">
        <ele>2345</ele>
        <time>2015-05-08T08:17:39Z</time>
      </trkpt>
      <trkpt lat="42.88712" lon="0.14097">
        <ele>2347</ele>
        <time>2015-05-08T08:17:57Z</time>
      </trkpt>
      <trkpt lat="42.88713" lon="0.14093">
        <ele>2349</ele>
        <time>2015-05-08T08:18:11Z</time>
      </trkpt>
      <trkpt lat="42.88711" lon="0.14086">
        <ele>2350</ele>
        <time>2015-05-08T08:18:25Z</time>
      </trkpt>
      <trkpt lat="42.88708" lon="0.1409">
        <ele>2351</ele>
        <time>2015-05-08T08:18:38Z</time>
      </trkpt>
      <trkpt lat="42.8871" lon="0.14091">
        <ele>2353</ele>
        <time>2015-05-08T08:18:50Z</time>
      </trkpt>
      <trkpt lat="42.88712" lon="0.14097">
        <ele>2354</ele>
        <time>2015-05-08T08:19:05Z</time>
      </trkpt>
      <trkpt lat="42.88714" lon="0.141">
        <ele>2355</ele>
        <time>2015-05-08T08:19:23Z</time>
      </trkpt>
      <trkpt lat="42.88718" lon="0.14095">
        <ele>2355</ele>
        <time>2015-05-08T08:19:40Z</time>
      </trkpt>
      <trkpt lat="42.88718" lon="0.14088">
        <ele>2356</ele>
        <time>2015-05-08T08:19:53Z</time>
      </trkpt>
      <trkpt lat="42.88717" lon="0.14083">
        <ele>2358</ele>
        <time>2015-05-08T08:20:06Z</time>
      </trkpt>
      <trkpt lat="42.8871" lon="0.14085">
        <ele>2358</ele>
        <time>2015-05-08T08:20:24Z</time>
      </trkpt>
      <trkpt lat="42.88703" lon="0.14087">
        <ele>2360</ele>
        <time>2015-05-08T08:20:38Z</time>
      </trkpt>
      <trkpt lat="42.88703" lon="0.1409">
        <ele>2360</ele>
        <time>2015-05-08T08:20:52Z</time>
      </trkpt>
      <trkpt lat="42.88696" lon="0.14092">
        <ele>2360</ele>
        <time>2015-05-08T08:21:07Z</time>
      </trkpt>
      <trkpt lat="42.88693" lon="0.14091">
        <ele>2360</ele>
        <time>2015-05-08T08:21:12Z</time>
      </trkpt>
      <trkpt lat="42.88691" lon="0.14088">
        <ele>2362</ele>
        <time>2015-05-08T08:21:25Z</time>
      </trkpt>
      <trkpt lat="42.88691" lon="0.14086">
        <ele>2362</ele>
        <time>2015-05-08T08:21:39Z</time>
      </trkpt>
      <trkpt lat="42.88691" lon="0.14087">
        <ele>2363</ele>
        <time>2015-05-08T08:21:54Z</time>
      </trkpt>
      <trkpt lat="42.8869" lon="0.14093">
        <ele>2365</ele>
        <time>2015-05-08T08:22:07Z</time>
      </trkpt>
      <trkpt lat="42.88688" lon="0.14096">
        <ele>2365</ele>
        <time>2015-05-08T08:22:24Z</time>
      </trkpt>
      <trkpt lat="42.88684" lon="0.14091">
        <ele>2368</ele>
        <time>2015-05-08T08:22:36Z</time>
      </trkpt>
      <trkpt lat="42.88681" lon="0.14086">
        <ele>2371</ele>
        <time>2015-05-08T08:22:49Z</time>
      </trkpt>
      <trkpt lat="42.88674" lon="0.14076">
        <ele>2373</ele>
        <time>2015-05-08T08:23:05Z</time>
      </trkpt>
      <trkpt lat="42.88675" lon="0.14078">
        <ele>2374</ele>
        <time>2015-05-08T08:23:19Z</time>
      </trkpt>
      <trkpt lat="42.88674" lon="0.14086">
        <ele>2375</ele>
        <time>2015-05-08T08:23:35Z</time>
      </trkpt>
      <trkpt lat="42.8867" lon="0.14081">
        <ele>2377</ele>
        <time>2015-05-08T08:23:46Z</time>
      </trkpt>
      <trkpt lat="42.88666" lon="0.14077">
        <ele>2379</ele>
        <time>2015-05-08T08:24:02Z</time>
      </trkpt>
      <trkpt lat="42.88666" lon="0.14082">
        <ele>2380</ele>
        <time>2015-05-08T08:24:13Z</time>
      </trkpt>
      <trkpt lat="42.88663" lon="0.14092">
        <ele>2383</ele>
        <time>2015-05-08T08:24:28Z</time>
      </trkpt>
      <trkpt lat="42.88662" lon="0.14105">
        <ele>2386</ele>
        <time>2015-05-08T08:24:43Z</time>
      </trkpt>
      <trkpt lat="42.88656" lon="0.14107">
        <ele>2387</ele>
        <time>2015-05-08T08:24:57Z</time>
      </trkpt>
      <trkpt lat="42.88652" lon="0.14101">
        <ele>2390</ele>
        <time>2015-05-08T08:25:11Z</time>
      </trkpt>
      <trkpt lat="42.88652" lon="0.14103">
        <ele>2390</ele>
        <time>2015-05-08T08:25:23Z</time>
      </trkpt>
      <trkpt lat="42.88649" lon="0.14101">
        <ele>2391</ele>
        <time>2015-05-08T08:25:34Z</time>
      </trkpt>
      <trkpt lat="42.88648" lon="0.14103">
        <ele>2391</ele>
        <time>2015-05-08T08:25:52Z</time>
      </trkpt>
      <trkpt lat="42.88648" lon="0.14105">
        <ele>2390</ele>
        <time>2015-05-08T08:26:24Z</time>
      </trkpt>
      <trkpt lat="42.88649" lon="0.14107">
        <ele>2390</ele>
        <time>2015-05-08T08:26:41Z</time>
      </trkpt>
      <trkpt lat="42.88649" lon="0.14105">
        <ele>2390</ele>
        <time>2015-05-08T08:26:55Z</time>
      </trkpt>
      <trkpt lat="42.8865" lon="0.14107">
        <ele>2391</ele>
        <time>2015-05-08T08:27:17Z</time>
      </trkpt>
      <trkpt lat="42.8865" lon="0.14098">
        <ele>2390</ele>
        <time>2015-05-08T08:27:29Z</time>
      </trkpt>
      <trkpt lat="42.88649" lon="0.14097">
        <ele>2390</ele>
        <time>2015-05-08T08:28:09Z</time>
      </trkpt>
      <trkpt lat="42.88649" lon="0.14099">
        <ele>2390</ele>
        <time>2015-05-08T08:28:48Z</time>
      </trkpt>
      <trkpt lat="42.8865" lon="0.14096">
        <ele>2389</ele>
        <time>2015-05-08T08:29:25Z</time>
      </trkpt>
      <trkpt lat="42.88649" lon="0.14099">
        <ele>2389</ele>
        <time>2015-05-08T08:30:13Z</time>
      </trkpt>
      <trkpt lat="42.88647" lon="0.14096">
        <ele>2389</ele>
        <time>2015-05-08T08:30:48Z</time>
      </trkpt>
      <trkpt lat="42.88646" lon="0.14094">
        <ele>2393</ele>
        <time>2015-05-08T08:31:12Z</time>
      </trkpt>
      <trkpt lat="42.88647" lon="0.14095">
        <ele>2394</ele>
        <time>2015-05-08T08:31:17Z</time>
      </trkpt>
      <trkpt lat="42.88646" lon="0.14094">
        <ele>2391</ele>
        <time>2015-05-08T08:31:29Z</time>
      </trkpt>
      <trkpt lat="42.88648" lon="0.14097">
        <ele>2392</ele>
        <time>2015-05-08T08:32:00Z</time>
      </trkpt>
      <trkpt lat="42.88648" lon="0.14097">
        <ele>2391</ele>
        <time>2015-05-08T08:32:04Z</time>
      </trkpt>
      <trkpt lat="42.88649" lon="0.14095">
        <ele>2391</ele>
        <time>2015-05-08T08:32:30Z</time>
      </trkpt>
      <trkpt lat="42.8865" lon="0.14095">
        <ele>2390</ele>
        <time>2015-05-08T08:32:42Z</time>
      </trkpt>
      <trkpt lat="42.8865" lon="0.14096">
        <ele>2392</ele>
        <time>2015-05-08T08:33:13Z</time>
      </trkpt>
      <trkpt lat="42.8865" lon="0.14097">
        <ele>2392</ele>
        <time>2015-05-08T08:33:49Z</time>
      </trkpt>
      <trkpt lat="42.88652" lon="0.14098">
        <ele>2391</ele>
        <time>2015-05-08T08:34:24Z</time>
      </trkpt>
      <trkpt lat="42.88648" lon="0.14099">
        <ele>2390</ele>
        <time>2015-05-08T08:34:51Z</time>
      </trkpt>
      <trkpt lat="42.8865" lon="0.14096">
        <ele>2391</ele>
        <time>2015-05-08T08:35:18Z</time>
      </trkpt>
      <trkpt lat="42.8865" lon="0.14097">
        <ele>2392</ele>
        <time>2015-05-08T08:35:58Z</time>
      </trkpt>
      <trkpt lat="42.8865" lon="0.14096">
        <ele>2392</ele>
        <time>2015-05-08T08:36:35Z</time>
      </trkpt>
      <trkpt lat="42.88649" lon="0.14095">
        <ele>2390</ele>
        <time>2015-05-08T08:37:12Z</time>
      </trkpt>
      <trkpt lat="42.8865" lon="0.14096">
        <ele>2393</ele>
        <time>2015-05-08T08:37:38Z</time>
      </trkpt>
      <trkpt lat="42.8865" lon="0.14096">
        <ele>2394</ele>
        <time>2015-05-08T08:37:39Z</time>
      </trkpt>
      <trkpt lat="42.8865" lon="0.14096">
        <ele>2397</ele>
        <time>2015-05-08T08:37:42Z</time>
      </trkpt>
      <trkpt lat="42.88651" lon="0.14097">
        <ele>2394</ele>
        <time>2015-05-08T08:37:54Z</time>
      </trkpt>
      <trkpt lat="42.88649" lon="0.14095">
        <ele>2395</ele>
        <time>2015-05-08T08:38:15Z</time>
      </trkpt>
      <trkpt lat="42.8865" lon="0.14096">
        <ele>2397</ele>
        <time>2015-05-08T08:38:21Z</time>
      </trkpt>
      <trkpt lat="42.88649" lon="0.14096">
        <ele>2400</ele>
        <time>2015-05-08T08:38:52Z</time>
      </trkpt>
      <trkpt lat="42.88649" lon="0.14095">
        <ele>2399</ele>
        <time>2015-05-08T08:38:59Z</time>
      </trkpt>
      <trkpt lat="42.88649" lon="0.14095">
        <ele>2402</ele>
        <time>2015-05-08T08:39:05Z</time>
      </trkpt>
      <trkpt lat="42.88651" lon="0.14097">
        <ele>2397</ele>
        <time>2015-05-08T08:39:09Z</time>
      </trkpt>
      <trkpt lat="42.88651" lon="0.14097">
        <ele>2395</ele>
        <time>2015-05-08T08:39:13Z</time>
      </trkpt>
      <trkpt lat="42.88651" lon="0.14098">
        <ele>2395</ele>
        <time>2015-05-08T08:39:29Z</time>
      </trkpt>
      <trkpt lat="42.8865" lon="0.14099">
        <ele>2395</ele>
        <time>2015-05-08T08:39:38Z</time>
      </trkpt>
      <trkpt lat="42.88648" lon="0.14101">
        <ele>2394</ele>
        <time>2015-05-08T08:40:01Z</time>
      </trkpt>
      <trkpt lat="42.88647" lon="0.14101">
        <ele>2393</ele>
        <time>2015-05-08T08:40:16Z</time>
      </trkpt>
      <trkpt lat="42.88649" lon="0.14104">
        <ele>2396</ele>
        <time>2015-05-08T08:40:41Z</time>
      </trkpt>
      <trkpt lat="42.88647" lon="0.14105">
        <ele>2393</ele>
        <time>2015-05-08T08:41:04Z</time>
      </trkpt>
      <trkpt lat="42.8865" lon="0.14106">
        <ele>2393</ele>
        <time>2015-05-08T08:41:33Z</time>
      </trkpt>
      <trkpt lat="42.88652" lon="0.14102">
        <ele>2393</ele>
        <time>2015-05-08T08:41:50Z</time>
      </trkpt>
      <trkpt lat="42.88651" lon="0.141">
        <ele>2393</ele>
        <time>2015-05-08T08:42:10Z</time>
      </trkpt>
      <trkpt lat="42.8865" lon="0.14096">
        <ele>2392</ele>
        <time>2015-05-08T08:42:32Z</time>
      </trkpt>
      <trkpt lat="42.88652" lon="0.141">
        <ele>2392</ele>
        <time>2015-05-08T08:42:54Z</time>
      </trkpt>
      <trkpt lat="42.88649" lon="0.14097">
        <ele>2392</ele>
        <time>2015-05-08T08:43:16Z</time>
      </trkpt>
      <trkpt lat="42.88647" lon="0.14096">
        <ele>2392</ele>
        <time>2015-05-08T08:43:31Z</time>
      </trkpt>
      <trkpt lat="42.88647" lon="0.14091">
        <ele>2392</ele>
        <time>2015-05-08T08:44:07Z</time>
      </trkpt>
      <trkpt lat="42.88647" lon="0.14092">
        <ele>2392</ele>
        <time>2015-05-08T08:44:37Z</time>
      </trkpt>
      <trkpt lat="42.88648" lon="0.14094">
        <ele>2392</ele>
        <time>2015-05-08T08:45:09Z</time>
      </trkpt>
      <trkpt lat="42.88643" lon="0.14092">
        <ele>2392</ele>
        <time>2015-05-08T08:45:40Z</time>
      </trkpt>
      <trkpt lat="42.88645" lon="0.14095">
        <ele>2391</ele>
        <time>2015-05-08T08:45:55Z</time>
      </trkpt>
      <trkpt lat="42.88651" lon="0.1409">
        <ele>2387</ele>
        <time>2015-05-08T08:46:00Z</time>
      </trkpt>
      <trkpt lat="42.88652" lon="0.14087">
        <ele>2387</ele>
        <time>2015-05-08T08:46:02Z</time>
      </trkpt>
      <trkpt lat="42.88655" lon="0.14085">
        <ele>2386</ele>
        <time>2015-05-08T08:46:03Z</time>
      </trkpt>
      <trkpt lat="42.88664" lon="0.14076">
        <ele>2380</ele>
        <time>2015-05-08T08:46:07Z</time>
      </trkpt>
      <trkpt lat="42.8867" lon="0.14069">
        <ele>2377</ele>
        <time>2015-05-08T08:46:10Z</time>
      </trkpt>
      <trkpt lat="42.88675" lon="0.14064">
        <ele>2373</ele>
        <time>2015-05-08T08:46:12Z</time>
      </trkpt>
      <trkpt lat="42.8868" lon="0.1406">
        <ele>2370</ele>
        <time>2015-05-08T08:46:15Z</time>
      </trkpt>
      <trkpt lat="42.88681" lon="0.14057">
        <ele>2366</ele>
        <time>2015-05-08T08:46:17Z</time>
      </trkpt>
      <trkpt lat="42.8868" lon="0.14055">
        <ele>2364</ele>
        <time>2015-05-08T08:46:19Z</time>
      </trkpt>
      <trkpt lat="42.88682" lon="0.14042">
        <ele>2359</ele>
        <time>2015-05-08T08:46:23Z</time>
      </trkpt>
      <trkpt lat="42.88689" lon="0.14035">
        <ele>2355</ele>
        <time>2015-05-08T08:46:25Z</time>
      </trkpt>
      <trkpt lat="42.88692" lon="0.1403">
        <ele>2352</ele>
        <time>2015-05-08T08:46:28Z</time>
      </trkpt>
      <trkpt lat="42.88696" lon="0.14023">
        <ele>2349</ele>
        <time>2015-05-08T08:46:29Z</time>
      </trkpt>
      <trkpt lat="42.88697" lon="0.14024">
        <ele>2346</ele>
        <time>2015-05-08T08:46:30Z</time>
      </trkpt>
      <trkpt lat="42.887" lon="0.1402">
        <ele>2345</ele>
        <time>2015-05-08T08:46:31Z</time>
      </trkpt>
      <trkpt lat="42.88706" lon="0.14015">
        <ele>2340</ele>
        <time>2015-05-08T08:46:34Z</time>
      </trkpt>
      <trkpt lat="42.88714" lon="0.14005">
        <ele>2336</ele>
        <time>2015-05-08T08:46:36Z</time>
      </trkpt>
      <trkpt lat="42.88727" lon="0.14">
        <ele>2331</ele>
        <time>2015-05-08T08:46:39Z</time>
      </trkpt>
      <trkpt lat="42.8873" lon="0.13997">
        <ele>2327</ele>
        <time>2015-05-08T08:46:40Z</time>
      </trkpt>
      <trkpt lat="42.88735" lon="0.13987">
        <ele>2324</ele>
        <time>2015-05-08T08:46:42Z</time>
      </trkpt>
      <trkpt lat="42.88739" lon="0.13984">
        <ele>2320</ele>
        <time>2015-05-08T08:46:43Z</time>
      </trkpt>
      <trkpt lat="42.88742" lon="0.13983">
        <ele>2319</ele>
        <time>2015-05-08T08:46:44Z</time>
      </trkpt>
      <trkpt lat="42.88746" lon="0.13966">
        <ele>2311</ele>
        <time>2015-05-08T08:46:47Z</time>
      </trkpt>
      <trkpt lat="42.88757" lon="0.13961">
        <ele>2305</ele>
        <time>2015-05-08T08:46:50Z</time>
      </trkpt>
      <trkpt lat="42.8876" lon="0.13952">
        <ele>2301</ele>
        <time>2015-05-08T08:46:52Z</time>
      </trkpt>
      <trkpt lat="42.88766" lon="0.13946">
        <ele>2297</ele>
        <time>2015-05-08T08:46:54Z</time>
      </trkpt>
      <trkpt lat="42.8877" lon="0.13945">
        <ele>2295</ele>
        <time>2015-05-08T08:46:55Z</time>
      </trkpt>
      <trkpt lat="42.88773" lon="0.13943">
        <ele>2290</ele>
        <time>2015-05-08T08:46:59Z</time>
      </trkpt>
      <trkpt lat="42.88772" lon="0.13945">
        <ele>2291</ele>
        <time>2015-05-08T08:47:02Z</time>
      </trkpt>
      <trkpt lat="42.88762" lon="0.13973">
        <ele>2292</ele>
        <time>2015-05-08T08:47:26Z</time>
      </trkpt>
      <trkpt lat="42.8876" lon="0.13972">
        <ele>2292</ele>
        <time>2015-05-08T08:47:44Z</time>
      </trkpt>
      <trkpt lat="42.88755" lon="0.13972">
        <ele>2294</ele>
        <time>2015-05-08T08:48:10Z</time>
      </trkpt>
      <trkpt lat="42.88754" lon="0.13973">
        <ele>2296</ele>
        <time>2015-05-08T08:48:39Z</time>
      </trkpt>
      <trkpt lat="42.88745" lon="0.13971">
        <ele>2296</ele>
        <time>2015-05-08T08:49:06Z</time>
      </trkpt>
      <trkpt lat="42.88748" lon="0.13969">
        <ele>2296</ele>
        <time>2015-05-08T08:49:17Z</time>
      </trkpt>
      <trkpt lat="42.88762" lon="0.1396">
        <ele>2292</ele>
        <time>2015-05-08T08:49:22Z</time>
      </trkpt>
      <trkpt lat="42.8877" lon="0.13959">
        <ele>2290</ele>
        <time>2015-05-08T08:49:24Z</time>
      </trkpt>
      <trkpt lat="42.88779" lon="0.13955">
        <ele>2285</ele>
        <time>2015-05-08T08:49:26Z</time>
      </trkpt>
      <trkpt lat="42.8879" lon="0.13957">
        <ele>2283</ele>
        <time>2015-05-08T08:49:28Z</time>
      </trkpt>
      <trkpt lat="42.88811" lon="0.13947">
        <ele>2278</ele>
        <time>2015-05-08T08:49:31Z</time>
      </trkpt>
      <trkpt lat="42.88819" lon="0.13942">
        <ele>2277</ele>
        <time>2015-05-08T08:49:32Z</time>
      </trkpt>
      <trkpt lat="42.88833" lon="0.13937">
        <ele>2276</ele>
        <time>2015-05-08T08:49:34Z</time>
      </trkpt>
      <trkpt lat="42.88857" lon="0.13933">
        <ele>2274</ele>
        <time>2015-05-08T08:49:42Z</time>
      </trkpt>
      <trkpt lat="42.8886" lon="0.13933">
        <ele>2273</ele>
        <time>2015-05-08T08:49:43Z</time>
      </trkpt>
      <trkpt lat="42.88868" lon="0.13924">
        <ele>2270</ele>
        <time>2015-05-08T08:49:46Z</time>
      </trkpt>
      <trkpt lat="42.88881" lon="0.13915">
        <ele>2265</ele>
        <time>2015-05-08T08:49:49Z</time>
      </trkpt>
      <trkpt lat="42.88897" lon="0.13918">
        <ele>2263</ele>
        <time>2015-05-08T08:49:52Z</time>
      </trkpt>
      <trkpt lat="42.88902" lon="0.13913">
        <ele>2258</ele>
        <time>2015-05-08T08:49:54Z</time>
      </trkpt>
      <trkpt lat="42.8891" lon="0.13904">
        <ele>2255</ele>
        <time>2015-05-08T08:49:56Z</time>
      </trkpt>
      <trkpt lat="42.88929" lon="0.13907">
        <ele>2251</ele>
        <time>2015-05-08T08:49:59Z</time>
      </trkpt>
      <trkpt lat="42.88955" lon="0.13917">
        <ele>2247</ele>
        <time>2015-05-08T08:50:03Z</time>
      </trkpt>
      <trkpt lat="42.8896" lon="0.13918">
        <ele>2247</ele>
        <time>2015-05-08T08:50:04Z</time>
      </trkpt>
      <trkpt lat="42.88969" lon="0.13921">
        <ele>2246</ele>
        <time>2015-05-08T08:50:06Z</time>
      </trkpt>
      <trkpt lat="42.88991" lon="0.13919">
        <ele>2242</ele>
        <time>2015-05-08T08:50:10Z</time>
      </trkpt>
      <trkpt lat="42.89011" lon="0.13911">
        <ele>2240</ele>
        <time>2015-05-08T08:50:14Z</time>
      </trkpt>
      <trkpt lat="42.89027" lon="0.13904">
        <ele>2238</ele>
        <time>2015-05-08T08:50:18Z</time>
      </trkpt>
      <trkpt lat="42.89026" lon="0.13912">
        <ele>2239</ele>
        <time>2015-05-08T08:50:27Z</time>
      </trkpt>
      <trkpt lat="42.89036" lon="0.139">
        <ele>2237</ele>
        <time>2015-05-08T08:50:33Z</time>
      </trkpt>
      <trkpt lat="42.89042" lon="0.13894">
        <ele>2236</ele>
        <time>2015-05-08T08:50:35Z</time>
      </trkpt>
      <trkpt lat="42.89036" lon="0.1388">
        <ele>2232</ele>
        <time>2015-05-08T08:50:38Z</time>
      </trkpt>
      <trkpt lat="42.8903" lon="0.13869">
        <ele>2228</ele>
        <time>2015-05-08T08:50:39Z</time>
      </trkpt>
      <trkpt lat="42.89043" lon="0.13853">
        <ele>2225</ele>
        <time>2015-05-08T08:50:43Z</time>
      </trkpt>
      <trkpt lat="42.8906" lon="0.1384">
        <ele>2222</ele>
        <time>2015-05-08T08:50:46Z</time>
      </trkpt>
      <trkpt lat="42.89073" lon="0.13835">
        <ele>2218</ele>
        <time>2015-05-08T08:50:48Z</time>
      </trkpt>
      <trkpt lat="42.89081" lon="0.13827">
        <ele>2217</ele>
        <time>2015-05-08T08:50:50Z</time>
      </trkpt>
      <trkpt lat="42.8909" lon="0.13817">
        <ele>2214</ele>
        <time>2015-05-08T08:50:52Z</time>
      </trkpt>
      <trkpt lat="42.89096" lon="0.13814">
        <ele>2213</ele>
        <time>2015-05-08T08:50:53Z</time>
      </trkpt>
      <trkpt lat="42.89129" lon="0.13808">
        <ele>2210</ele>
        <time>2015-05-08T08:50:59Z</time>
      </trkpt>
      <trkpt lat="42.89146" lon="0.13809">
        <ele>2207</ele>
        <time>2015-05-08T08:51:03Z</time>
      </trkpt>
      <trkpt lat="42.89163" lon="0.13797">
        <ele>2205</ele>
        <time>2015-05-08T08:51:13Z</time>
      </trkpt>
      <trkpt lat="42.89164" lon="0.13796">
        <ele>2205</ele>
        <time>2015-05-08T08:51:16Z</time>
      </trkpt>
      <trkpt lat="42.89172" lon="0.13797">
        <ele>2205</ele>
        <time>2015-05-08T08:51:23Z</time>
      </trkpt>
      <trkpt lat="42.89191" lon="0.13803">
        <ele>2204</ele>
        <time>2015-05-08T08:51:33Z</time>
      </trkpt>
      <trkpt lat="42.89198" lon="0.13791">
        <ele>2201</ele>
        <time>2015-05-08T08:51:36Z</time>
      </trkpt>
      <trkpt lat="42.892" lon="0.13786">
        <ele>2199</ele>
        <time>2015-05-08T08:51:37Z</time>
      </trkpt>
      <trkpt lat="42.89216" lon="0.13776">
        <ele>2193</ele>
        <time>2015-05-08T08:51:40Z</time>
      </trkpt>
      <trkpt lat="42.8923" lon="0.13776">
        <ele>2191</ele>
        <time>2015-05-08T08:51:42Z</time>
      </trkpt>
      <trkpt lat="42.89255" lon="0.13776">
        <ele>2188</ele>
        <time>2015-05-08T08:51:46Z</time>
      </trkpt>
      <trkpt lat="42.89274" lon="0.13767">
        <ele>2185</ele>
        <time>2015-05-08T08:51:50Z</time>
      </trkpt>
      <trkpt lat="42.89284" lon="0.1376">
        <ele>2180</ele>
        <time>2015-05-08T08:51:52Z</time>
      </trkpt>
      <trkpt lat="42.893" lon="0.13748">
        <ele>2175</ele>
        <time>2015-05-08T08:51:55Z</time>
      </trkpt>
      <trkpt lat="42.89311" lon="0.13737">
        <ele>2169</ele>
        <time>2015-05-08T08:51:58Z</time>
      </trkpt>
      <trkpt lat="42.8933" lon="0.13738">
        <ele>2165</ele>
        <time>2015-05-08T08:52:01Z</time>
      </trkpt>
      <trkpt lat="42.89344" lon="0.13727">
        <ele>2160</ele>
        <time>2015-05-08T08:52:04Z</time>
      </trkpt>
      <trkpt lat="42.89343" lon="0.13724">
        <ele>2161</ele>
        <time>2015-05-08T08:52:05Z</time>
      </trkpt>
      <trkpt lat="42.89339" lon="0.13718">
        <ele>2160</ele>
        <time>2015-05-08T08:52:13Z</time>
      </trkpt>
      <trkpt lat="42.89339" lon="0.13715">
        <ele>2159</ele>
        <time>2015-05-08T08:52:15Z</time>
      </trkpt>
      <trkpt lat="42.8935" lon="0.13716">
        <ele>2156</ele>
        <time>2015-05-08T08:52:18Z</time>
      </trkpt>
      <trkpt lat="42.89369" lon="0.13718">
        <ele>2153</ele>
        <time>2015-05-08T08:52:21Z</time>
      </trkpt>
      <trkpt lat="42.89391" lon="0.13705">
        <ele>2147</ele>
        <time>2015-05-08T08:52:25Z</time>
      </trkpt>
      <trkpt lat="42.894" lon="0.13694">
        <ele>2144</ele>
        <time>2015-05-08T08:52:27Z</time>
      </trkpt>
      <trkpt lat="42.89412" lon="0.13689">
        <ele>2140</ele>
        <time>2015-05-08T08:52:29Z</time>
      </trkpt>
      <trkpt lat="42.89437" lon="0.13684">
        <ele>2136</ele>
        <time>2015-05-08T08:52:33Z</time>
      </trkpt>
      <trkpt lat="42.89446" lon="0.13687">
        <ele>2134</ele>
        <time>2015-05-08T08:52:43Z</time>
      </trkpt>
      <trkpt lat="42.89446" lon="0.13688">
        <ele>2134</ele>
        <time>2015-05-08T08:52:51Z</time>
      </trkpt>
      <trkpt lat="42.89452" lon="0.13681">
        <ele>2132</ele>
        <time>2015-05-08T08:52:54Z</time>
      </trkpt>
      <trkpt lat="42.89451" lon="0.13675">
        <ele>2129</ele>
        <time>2015-05-08T08:52:56Z</time>
      </trkpt>
      <trkpt lat="42.89453" lon="0.13665">
        <ele>2125</ele>
        <time>2015-05-08T08:52:58Z</time>
      </trkpt>
      <trkpt lat="42.89463" lon="0.13659">
        <ele>2121</ele>
        <time>2015-05-08T08:53:00Z</time>
      </trkpt>
      <trkpt lat="42.89468" lon="0.13658">
        <ele>2119</ele>
        <time>2015-05-08T08:53:01Z</time>
      </trkpt>
      <trkpt lat="42.89478" lon="0.13657">
        <ele>2118</ele>
        <time>2015-05-08T08:53:03Z</time>
      </trkpt>
      <trkpt lat="42.89492" lon="0.13654">
        <ele>2116</ele>
        <time>2015-05-08T08:53:06Z</time>
      </trkpt>
      <trkpt lat="42.89506" lon="0.13647">
        <ele>2114</ele>
        <time>2015-05-08T08:53:09Z</time>
      </trkpt>
      <trkpt lat="42.89528" lon="0.13633">
        <ele>2110</ele>
        <time>2015-05-08T08:53:14Z</time>
      </trkpt>
      <trkpt lat="42.89532" lon="0.1363">
        <ele>2110</ele>
        <time>2015-05-08T08:53:15Z</time>
      </trkpt>
      <trkpt lat="42.89548" lon="0.13623">
        <ele>2107</ele>
        <time>2015-05-08T08:53:19Z</time>
      </trkpt>
      <trkpt lat="42.89573" lon="0.13614">
        <ele>2103</ele>
        <time>2015-05-08T08:53:25Z</time>
      </trkpt>
      <trkpt lat="42.89586" lon="0.13616">
        <ele>2101</ele>
        <time>2015-05-08T08:53:33Z</time>
      </trkpt>
      <trkpt lat="42.89586" lon="0.13618">
        <ele>2101</ele>
        <time>2015-05-08T08:53:39Z</time>
      </trkpt>
      <trkpt lat="42.89581" lon="0.13607">
        <ele>2098</ele>
        <time>2015-05-08T08:53:43Z</time>
      </trkpt>
      <trkpt lat="42.8958" lon="0.13596">
        <ele>2094</ele>
        <time>2015-05-08T08:53:45Z</time>
      </trkpt>
      <trkpt lat="42.89584" lon="0.13589">
        <ele>2091</ele>
        <time>2015-05-08T08:53:46Z</time>
      </trkpt>
      <trkpt lat="42.89601" lon="0.13571">
        <ele>2088</ele>
        <time>2015-05-08T08:53:49Z</time>
      </trkpt>
      <trkpt lat="42.89612" lon="0.1356">
        <ele>2085</ele>
        <time>2015-05-08T08:53:51Z</time>
      </trkpt>
      <trkpt lat="42.8964" lon="0.13537">
        <ele>2082</ele>
        <time>2015-05-08T08:54:00Z</time>
      </trkpt>
      <trkpt lat="42.8967" lon="0.1352">
        <ele>2078</ele>
        <time>2015-05-08T08:54:10Z</time>
      </trkpt>
      <trkpt lat="42.8968" lon="0.13516">
        <ele>2077</ele>
        <time>2015-05-08T08:54:13Z</time>
      </trkpt>
      <trkpt lat="42.89703" lon="0.13501">
        <ele>2074</ele>
        <time>2015-05-08T08:54:20Z</time>
      </trkpt>
      <trkpt lat="42.89726" lon="0.13489">
        <ele>2070</ele>
        <time>2015-05-08T08:54:27Z</time>
      </trkpt>
      <trkpt lat="42.89753" lon="0.13476">
        <ele>2067</ele>
        <time>2015-05-08T08:54:39Z</time>
      </trkpt>
      <trkpt lat="42.89765" lon="0.13479">
        <ele>2067</ele>
        <time>2015-05-08T08:54:49Z</time>
      </trkpt>
      <trkpt lat="42.89763" lon="0.1348">
        <ele>2065</ele>
        <time>2015-05-08T08:55:08Z</time>
      </trkpt>
      <trkpt lat="42.89768" lon="0.1348">
        <ele>2065</ele>
        <time>2015-05-08T08:55:34Z</time>
      </trkpt>
      <trkpt lat="42.89783" lon="0.13494">
        <ele>2062</ele>
        <time>2015-05-08T08:55:39Z</time>
      </trkpt>
      <trkpt lat="42.89804" lon="0.13494">
        <ele>2058</ele>
        <time>2015-05-08T08:55:46Z</time>
      </trkpt>
      <trkpt lat="42.89806" lon="0.13491">
        <ele>2055</ele>
        <time>2015-05-08T08:55:47Z</time>
      </trkpt>
      <trkpt lat="42.89808" lon="0.13485">
        <ele>2053</ele>
        <time>2015-05-08T08:55:48Z</time>
      </trkpt>
      <trkpt lat="42.89815" lon="0.13477">
        <ele>2048</ele>
        <time>2015-05-08T08:55:50Z</time>
      </trkpt>
      <trkpt lat="42.89821" lon="0.13455">
        <ele>2040</ele>
        <time>2015-05-08T08:55:53Z</time>
      </trkpt>
      <trkpt lat="42.89835" lon="0.13451">
        <ele>2037</ele>
        <time>2015-05-08T08:55:55Z</time>
      </trkpt>
      <trkpt lat="42.89846" lon="0.13441">
        <ele>2032</ele>
        <time>2015-05-08T08:55:57Z</time>
      </trkpt>
      <trkpt lat="42.8985" lon="0.13435">
        <ele>2029</ele>
        <time>2015-05-08T08:55:58Z</time>
      </trkpt>
      <trkpt lat="42.89851" lon="0.13413">
        <ele>2024</ele>
        <time>2015-05-08T08:56:03Z</time>
      </trkpt>
      <trkpt lat="42.89846" lon="0.13395">
        <ele>2022</ele>
        <time>2015-05-08T08:56:07Z</time>
      </trkpt>
      <trkpt lat="42.89844" lon="0.13384">
        <ele>2021</ele>
        <time>2015-05-08T08:56:17Z</time>
      </trkpt>
      <trkpt lat="42.89843" lon="0.1337">
        <ele>2020</ele>
        <time>2015-05-08T08:56:46Z</time>
      </trkpt>
      <trkpt lat="42.89855" lon="0.1336">
        <ele>2017</ele>
        <time>2015-05-08T08:56:49Z</time>
      </trkpt>
      <trkpt lat="42.89869" lon="0.13353">
        <ele>2010</ele>
        <time>2015-05-08T08:56:52Z</time>
      </trkpt>
      <trkpt lat="42.89876" lon="0.13345">
        <ele>2005</ele>
        <time>2015-05-08T08:56:54Z</time>
      </trkpt>
      <trkpt lat="42.89879" lon="0.13338">
        <ele>2002</ele>
        <time>2015-05-08T08:56:55Z</time>
      </trkpt>
      <trkpt lat="42.89884" lon="0.13302">
        <ele>1996</ele>
        <time>2015-05-08T08:56:59Z</time>
      </trkpt>
      <trkpt lat="42.89891" lon="0.1328">
        <ele>1992</ele>
        <time>2015-05-08T08:57:02Z</time>
      </trkpt>
      <trkpt lat="42.89902" lon="0.13275">
        <ele>1988</ele>
        <time>2015-05-08T08:57:04Z</time>
      </trkpt>
      <trkpt lat="42.89914" lon="0.13259">
        <ele>1984</ele>
        <time>2015-05-08T08:57:07Z</time>
      </trkpt>
      <trkpt lat="42.89917" lon="0.13252">
        <ele>1984</ele>
        <time>2015-05-08T08:57:08Z</time>
      </trkpt>
      <trkpt lat="42.89933" lon="0.13235">
        <ele>1977</ele>
        <time>2015-05-08T08:57:12Z</time>
      </trkpt>
      <trkpt lat="42.89943" lon="0.13228">
        <ele>1974</ele>
        <time>2015-05-08T08:57:14Z</time>
      </trkpt>
      <trkpt lat="42.89959" lon="0.13222">
        <ele>1968</ele>
        <time>2015-05-08T08:57:17Z</time>
      </trkpt>
      <trkpt lat="42.89962" lon="0.13214">
        <ele>1966</ele>
        <time>2015-05-08T08:57:18Z</time>
      </trkpt>
      <trkpt lat="42.8997" lon="0.13192">
        <ele>1963</ele>
        <time>2015-05-08T08:57:21Z</time>
      </trkpt>
      <trkpt lat="42.89977" lon="0.13185">
        <ele>1960</ele>
        <time>2015-05-08T08:57:23Z</time>
      </trkpt>
      <trkpt lat="42.89983" lon="0.13199">
        <ele>1957</ele>
        <time>2015-05-08T08:57:35Z</time>
      </trkpt>
      <trkpt lat="42.89985" lon="0.13204">
        <ele>1956</ele>
        <time>2015-05-08T08:57:52Z</time>
      </trkpt>
      <trkpt lat="42.89984" lon="0.13207">
        <ele>1956</ele>
        <time>2015-05-08T08:58:22Z</time>
      </trkpt>
      <trkpt lat="42.89986" lon="0.13208">
        <ele>1956</ele>
        <time>2015-05-08T08:58:36Z</time>
      </trkpt>
      <trkpt lat="42.89991" lon="0.13196">
        <ele>1953</ele>
        <time>2015-05-08T08:58:41Z</time>
      </trkpt>
      <trkpt lat="42.8999" lon="0.13193">
        <ele>1952</ele>
        <time>2015-05-08T08:58:42Z</time>
      </trkpt>
      <trkpt lat="42.89987" lon="0.13187">
        <ele>1953</ele>
        <time>2015-05-08T08:58:52Z</time>
      </trkpt>
      <trkpt lat="42.89985" lon="0.13181">
        <ele>1954</ele>
        <time>2015-05-08T08:59:04Z</time>
      </trkpt>
      <trkpt lat="42.89985" lon="0.13175">
        <ele>1954</ele>
        <time>2015-05-08T08:59:19Z</time>
      </trkpt>
      <trkpt lat="42.89981" lon="0.13167">
        <ele>1954</ele>
        <time>2015-05-08T08:59:32Z</time>
      </trkpt>
      <trkpt lat="42.89978" lon="0.13155">
        <ele>1953</ele>
        <time>2015-05-08T08:59:44Z</time>
      </trkpt>
      <trkpt lat="42.89978" lon="0.13156">
        <ele>1953</ele>
        <time>2015-05-08T08:59:53Z</time>
      </trkpt>
      <trkpt lat="42.89979" lon="0.1314">
        <ele>1951</ele>
        <time>2015-05-08T08:59:59Z</time>
      </trkpt>
      <trkpt lat="42.89987" lon="0.13133">
        <ele>1947</ele>
        <time>2015-05-08T09:00:02Z</time>
      </trkpt>
      <trkpt lat="42.89994" lon="0.13136">
        <ele>1944</ele>
        <time>2015-05-08T09:00:04Z</time>
      </trkpt>
      <trkpt lat="42.90001" lon="0.13134">
        <ele>1940</ele>
        <time>2015-05-08T09:00:06Z</time>
      </trkpt>
      <trkpt lat="42.90007" lon="0.13135">
        <ele>1937</ele>
        <time>2015-05-08T09:00:08Z</time>
      </trkpt>
      <trkpt lat="42.90009" lon="0.13135">
        <ele>1935</ele>
        <time>2015-05-08T09:00:09Z</time>
      </trkpt>
      <trkpt lat="42.90018" lon="0.13128">
        <ele>1929</ele>
        <time>2015-05-08T09:00:12Z</time>
      </trkpt>
      <trkpt lat="42.90019" lon="0.13128">
        <ele>1929</ele>
        <time>2015-05-08T09:00:13Z</time>
      </trkpt>
      <trkpt lat="42.90023" lon="0.13121">
        <ele>1925</ele>
        <time>2015-05-08T09:00:15Z</time>
      </trkpt>
      <trkpt lat="42.90028" lon="0.13109">
        <ele>1921</ele>
        <time>2015-05-08T09:00:17Z</time>
      </trkpt>
      <trkpt lat="42.90033" lon="0.13092">
        <ele>1917</ele>
        <time>2015-05-08T09:00:21Z</time>
      </trkpt>
      <trkpt lat="42.90043" lon="0.13078">
        <ele>1913</ele>
        <time>2015-05-08T09:00:24Z</time>
      </trkpt>
      <trkpt lat="42.90055" lon="0.13076">
        <ele>1909</ele>
        <time>2015-05-08T09:00:27Z</time>
      </trkpt>
      <trkpt lat="42.90063" lon="0.1307">
        <ele>1901</ele>
        <time>2015-05-08T09:00:29Z</time>
      </trkpt>
      <trkpt lat="42.90081" lon="0.13064">
        <ele>1893</ele>
        <time>2015-05-08T09:00:33Z</time>
      </trkpt>
      <trkpt lat="42.90093" lon="0.1307">
        <ele>1889</ele>
        <time>2015-05-08T09:00:36Z</time>
      </trkpt>
      <trkpt lat="42.901" lon="0.13069">
        <ele>1886</ele>
        <time>2015-05-08T09:00:38Z</time>
      </trkpt>
      <trkpt lat="42.901" lon="0.13067">
        <ele>1886</ele>
        <time>2015-05-08T09:00:39Z</time>
      </trkpt>
      <trkpt lat="42.90092" lon="0.13062">
        <ele>1887</ele>
        <time>2015-05-08T09:00:53Z</time>
      </trkpt>
      <trkpt lat="42.9009" lon="0.13069">
        <ele>1886</ele>
        <time>2015-05-08T09:01:08Z</time>
      </trkpt>
      <trkpt lat="42.90098" lon="0.13066">
        <ele>1884</ele>
        <time>2015-05-08T09:01:12Z</time>
      </trkpt>
      <trkpt lat="42.90113" lon="0.1307">
        <ele>1877</ele>
        <time>2015-05-08T09:01:16Z</time>
      </trkpt>
      <trkpt lat="42.90121" lon="0.13074">
        <ele>1870</ele>
        <time>2015-05-08T09:01:18Z</time>
      </trkpt>
      <trkpt lat="42.90132" lon="0.13075">
        <ele>1865</ele>
        <time>2015-05-08T09:01:20Z</time>
      </trkpt>
      <trkpt lat="42.90137" lon="0.13072">
        <ele>1861</ele>
        <time>2015-05-08T09:01:21Z</time>
      </trkpt>
      <trkpt lat="42.90148" lon="0.13071">
        <ele>1856</ele>
        <time>2015-05-08T09:01:23Z</time>
      </trkpt>
      <trkpt lat="42.90159" lon="0.13067">
        <ele>1852</ele>
        <time>2015-05-08T09:01:25Z</time>
      </trkpt>
      <trkpt lat="42.90165" lon="0.13068">
        <ele>1852</ele>
        <time>2015-05-08T09:01:26Z</time>
      </trkpt>
      <trkpt lat="42.90176" lon="0.13071">
        <ele>1851</ele>
        <time>2015-05-08T09:01:28Z</time>
      </trkpt>
      <trkpt lat="42.90188" lon="0.13076">
        <ele>1848</ele>
        <time>2015-05-08T09:01:31Z</time>
      </trkpt>
      <trkpt lat="42.90205" lon="0.13084">
        <ele>1848</ele>
        <time>2015-05-08T09:01:37Z</time>
      </trkpt>
      <trkpt lat="42.90216" lon="0.13083">
        <ele>1849</ele>
        <time>2015-05-08T09:01:43Z</time>
      </trkpt>
      <trkpt lat="42.90245" lon="0.13082">
        <ele>1846</ele>
        <time>2015-05-08T09:01:55Z</time>
      </trkpt>
      <trkpt lat="42.90248" lon="0.13083">
        <ele>1846</ele>
        <time>2015-05-08T09:01:58Z</time>
      </trkpt>
      <trkpt lat="42.90257" lon="0.1309">
        <ele>1846</ele>
        <time>2015-05-08T09:02:06Z</time>
      </trkpt>
      <trkpt lat="42.90266" lon="0.13096">
        <ele>1845</ele>
        <time>2015-05-08T09:02:21Z</time>
      </trkpt>
      <trkpt lat="42.90264" lon="0.13099">
        <ele>1845</ele>
        <time>2015-05-08T09:02:42Z</time>
      </trkpt>
      <trkpt lat="42.90263" lon="0.13097">
        <ele>1845</ele>
        <time>2015-05-08T09:03:18Z</time>
      </trkpt>
      <trkpt lat="42.90265" lon="0.13098">
        <ele>1845</ele>
        <time>2015-05-08T09:03:28Z</time>
      </trkpt>
      <trkpt lat="42.90281" lon="0.13088">
        <ele>1842</ele>
        <time>2015-05-08T09:03:36Z</time>
      </trkpt>
      <trkpt lat="42.903" lon="0.13098">
        <ele>1839</ele>
        <time>2015-05-08T09:03:43Z</time>
      </trkpt>
      <trkpt lat="42.90302" lon="0.13096">
        <ele>1837</ele>
        <time>2015-05-08T09:03:52Z</time>
      </trkpt>
      <trkpt lat="42.90299" lon="0.13101">
        <ele>1837</ele>
        <time>2015-05-08T09:04:22Z</time>
      </trkpt>
      <trkpt lat="42.903" lon="0.131">
        <ele>1836</ele>
        <time>2015-05-08T09:04:44Z</time>
      </trkpt>
      <trkpt lat="42.90301" lon="0.131">
        <ele>1836</ele>
        <time>2015-05-08T09:05:13Z</time>
      </trkpt>
      <trkpt lat="42.90301" lon="0.13098">
        <ele>1836</ele>
        <time>2015-05-08T09:05:37Z</time>
      </trkpt>
      <trkpt lat="42.90301" lon="0.13099">
        <ele>1837</ele>
        <time>2015-05-08T09:06:09Z</time>
      </trkpt>
      <trkpt lat="42.90302" lon="0.13099">
        <ele>1837</ele>
        <time>2015-05-08T09:06:27Z</time>
      </trkpt>
      <trkpt lat="42.90309" lon="0.131">
        <ele>1835</ele>
        <time>2015-05-08T09:06:31Z</time>
      </trkpt>
      <trkpt lat="42.90317" lon="0.13103">
        <ele>1831</ele>
        <time>2015-05-08T09:06:35Z</time>
      </trkpt>
      <trkpt lat="42.90325" lon="0.13101">
        <ele>1828</ele>
        <time>2015-05-08T09:06:38Z</time>
      </trkpt>
      <trkpt lat="42.90326" lon="0.13104">
        <ele>1826</ele>
        <time>2015-05-08T09:06:42Z</time>
      </trkpt>
      <trkpt lat="42.90329" lon="0.13101">
        <ele>1824</ele>
        <time>2015-05-08T09:06:45Z</time>
      </trkpt>
      <trkpt lat="42.90337" lon="0.13114">
        <ele>1822</ele>
        <time>2015-05-08T09:06:55Z</time>
      </trkpt>
      <trkpt lat="42.90339" lon="0.13128">
        <ele>1821</ele>
        <time>2015-05-08T09:07:12Z</time>
      </trkpt>
      <trkpt lat="42.90339" lon="0.13124">
        <ele>1821</ele>
        <time>2015-05-08T09:07:31Z</time>
      </trkpt>
      <trkpt lat="42.90338" lon="0.13124">
        <ele>1821</ele>
        <time>2015-05-08T09:07:46Z</time>
      </trkpt>
      <trkpt lat="42.90341" lon="0.13124">
        <ele>1821</ele>
        <time>2015-05-08T09:07:48Z</time>
      </trkpt>
      <trkpt lat="42.90344" lon="0.13117">
        <ele>1820</ele>
        <time>2015-05-08T09:07:53Z</time>
      </trkpt>
      <trkpt lat="42.90347" lon="0.13113">
        <ele>1821</ele>
        <time>2015-05-08T09:07:56Z</time>
      </trkpt>
      <trkpt lat="42.90351" lon="0.13113">
        <ele>1821</ele>
        <time>2015-05-08T09:08:11Z</time>
      </trkpt>
      <trkpt lat="42.90355" lon="0.1312">
        <ele>1818</ele>
        <time>2015-05-08T09:08:23Z</time>
      </trkpt>
      <trkpt lat="42.90352" lon="0.13127">
        <ele>1818</ele>
        <time>2015-05-08T09:08:37Z</time>
      </trkpt>
      <trkpt lat="42.90351" lon="0.13125">
        <ele>1818</ele>
        <time>2015-05-08T09:08:57Z</time>
      </trkpt>
      <trkpt lat="42.90354" lon="0.13123">
        <ele>1818</ele>
        <time>2015-05-08T09:09:15Z</time>
      </trkpt>
      <trkpt lat="42.90352" lon="0.13128">
        <ele>1817</ele>
        <time>2015-05-08T09:09:28Z</time>
      </trkpt>
      <trkpt lat="42.90355" lon="0.13129">
        <ele>1814</ele>
        <time>2015-05-08T09:09:32Z</time>
      </trkpt>
      <trkpt lat="42.90357" lon="0.13128">
        <ele>1814</ele>
        <time>2015-05-08T09:09:33Z</time>
      </trkpt>
      <trkpt lat="42.90364" lon="0.13132">
        <ele>1808</ele>
        <time>2015-05-08T09:09:38Z</time>
      </trkpt>
      <trkpt lat="42.90365" lon="0.13132">
        <ele>1808</ele>
        <time>2015-05-08T09:09:39Z</time>
      </trkpt>
      <trkpt lat="42.90364" lon="0.13138">
        <ele>1807</ele>
        <time>2015-05-08T09:09:46Z</time>
      </trkpt>
      <trkpt lat="42.90366" lon="0.1314">
        <ele>1805</ele>
        <time>2015-05-08T09:09:58Z</time>
      </trkpt>
      <trkpt lat="42.90367" lon="0.13142">
        <ele>1805</ele>
        <time>2015-05-08T09:10:03Z</time>
      </trkpt>
      <trkpt lat="42.90369" lon="0.13144">
        <ele>1803</ele>
        <time>2015-05-08T09:10:04Z</time>
      </trkpt>
      <trkpt lat="42.90369" lon="0.13145">
        <ele>1802</ele>
        <time>2015-05-08T09:10:05Z</time>
      </trkpt>
      <trkpt lat="42.9037" lon="0.13148">
        <ele>1801</ele>
        <time>2015-05-08T09:10:07Z</time>
      </trkpt>
      <trkpt lat="42.90378" lon="0.13147">
        <ele>1796</ele>
        <time>2015-05-08T09:10:11Z</time>
      </trkpt>
      <trkpt lat="42.9038" lon="0.1315">
        <ele>1796</ele>
        <time>2015-05-08T09:10:12Z</time>
      </trkpt>
      <trkpt lat="42.90385" lon="0.1315">
        <ele>1793</ele>
        <time>2015-05-08T09:10:14Z</time>
      </trkpt>
      <trkpt lat="42.90386" lon="0.13149">
        <ele>1793</ele>
        <time>2015-05-08T09:10:15Z</time>
      </trkpt>
      <trkpt lat="42.90392" lon="0.13152">
        <ele>1789</ele>
        <time>2015-05-08T09:10:17Z</time>
      </trkpt>
      <trkpt lat="42.90401" lon="0.13151">
        <ele>1785</ele>
        <time>2015-05-08T09:10:19Z</time>
      </trkpt>
      <trkpt lat="42.90404" lon="0.13155">
        <ele>1784</ele>
        <time>2015-05-08T09:10:20Z</time>
      </trkpt>
      <trkpt lat="42.90413" lon="0.13157">
        <ele>1779</ele>
        <time>2015-05-08T09:10:22Z</time>
      </trkpt>
      <trkpt lat="42.90416" lon="0.13156">
        <ele>1778</ele>
        <time>2015-05-08T09:10:23Z</time>
      </trkpt>
      <trkpt lat="42.90422" lon="0.13161">
        <ele>1775</ele>
        <time>2015-05-08T09:10:25Z</time>
      </trkpt>
      <trkpt lat="42.90425" lon="0.13165">
        <ele>1773</ele>
        <time>2015-05-08T09:10:26Z</time>
      </trkpt>
      <trkpt lat="42.90433" lon="0.13169">
        <ele>1771</ele>
        <time>2015-05-08T09:10:28Z</time>
      </trkpt>
      <trkpt lat="42.90445" lon="0.1317">
        <ele>1768</ele>
        <time>2015-05-08T09:10:31Z</time>
      </trkpt>
      <trkpt lat="42.90447" lon="0.13167">
        <ele>1767</ele>
        <time>2015-05-08T09:10:40Z</time>
      </trkpt>
      <trkpt lat="42.90451" lon="0.13159">
        <ele>1767</ele>
        <time>2015-05-08T09:10:54Z</time>
      </trkpt>
      <trkpt lat="42.90454" lon="0.1316">
        <ele>1766</ele>
        <time>2015-05-08T09:11:06Z</time>
      </trkpt>
      <trkpt lat="42.90457" lon="0.13158">
        <ele>1766</ele>
        <time>2015-05-08T09:11:10Z</time>
      </trkpt>
      <trkpt lat="42.90465" lon="0.13153">
        <ele>1766</ele>
        <time>2015-05-08T09:11:16Z</time>
      </trkpt>
      <trkpt lat="42.90473" lon="0.13142">
        <ele>1764</ele>
        <time>2015-05-08T09:11:21Z</time>
      </trkpt>
      <trkpt lat="42.90483" lon="0.13138">
        <ele>1762</ele>
        <time>2015-05-08T09:11:23Z</time>
      </trkpt>
      <trkpt lat="42.90507" lon="0.13112">
        <ele>1761</ele>
        <time>2015-05-08T09:11:31Z</time>
      </trkpt>
      <trkpt lat="42.90508" lon="0.13113">
        <ele>1761</ele>
        <time>2015-05-08T09:11:32Z</time>
      </trkpt>
      <trkpt lat="42.90513" lon="0.13131">
        <ele>1759</ele>
        <time>2015-05-08T09:11:44Z</time>
      </trkpt>
      <trkpt lat="42.90516" lon="0.13127">
        <ele>1758</ele>
        <time>2015-05-08T09:11:50Z</time>
      </trkpt>
      <trkpt lat="42.90518" lon="0.13126">
        <ele>1759</ele>
        <time>2015-05-08T09:11:52Z</time>
      </trkpt>
      <trkpt lat="42.90523" lon="0.13114">
        <ele>1759</ele>
        <time>2015-05-08T09:12:04Z</time>
      </trkpt>
      <trkpt lat="42.90526" lon="0.13109">
        <ele>1759</ele>
        <time>2015-05-08T09:12:12Z</time>
      </trkpt>
      <trkpt lat="42.90538" lon="0.13097">
        <ele>1759</ele>
        <time>2015-05-08T09:12:22Z</time>
      </trkpt>
      <trkpt lat="42.90539" lon="0.13095">
        <ele>1759</ele>
        <time>2015-05-08T09:12:23Z</time>
      </trkpt>
      <trkpt lat="42.90555" lon="0.13076">
        <ele>1758</ele>
        <time>2015-05-08T09:12:34Z</time>
      </trkpt>
      <trkpt lat="42.90556" lon="0.13072">
        <ele>1758</ele>
        <time>2015-05-08T09:12:37Z</time>
      </trkpt>
      <trkpt lat="42.90549" lon="0.1306">
        <ele>1758</ele>
        <time>2015-05-08T09:12:49Z</time>
      </trkpt>
      <trkpt lat="42.90548" lon="0.13066">
        <ele>1757</ele>
        <time>2015-05-08T09:13:08Z</time>
      </trkpt>
      <trkpt lat="42.90547" lon="0.13064">
        <ele>1757</ele>
        <time>2015-05-08T09:13:21Z</time>
      </trkpt>
      <trkpt lat="42.90553" lon="0.13058">
        <ele>1756</ele>
        <time>2015-05-08T09:13:25Z</time>
      </trkpt>
      <trkpt lat="42.90559" lon="0.13056">
        <ele>1758</ele>
        <time>2015-05-08T09:13:35Z</time>
      </trkpt>
      <trkpt lat="42.90566" lon="0.13044">
        <ele>1757</ele>
        <time>2015-05-08T09:13:50Z</time>
      </trkpt>
      <trkpt lat="42.90566" lon="0.13043">
        <ele>1757</ele>
        <time>2015-05-08T09:13:51Z</time>
      </trkpt>
      <trkpt lat="42.90566" lon="0.13038">
        <ele>1758</ele>
        <time>2015-05-08T09:14:02Z</time>
      </trkpt>
      <trkpt lat="42.90567" lon="0.13042">
        <ele>1758</ele>
        <time>2015-05-08T09:14:19Z</time>
      </trkpt>
      <trkpt lat="42.90569" lon="0.1304">
        <ele>1758</ele>
        <time>2015-05-08T09:14:39Z</time>
      </trkpt>
      <trkpt lat="42.90569" lon="0.1305">
        <ele>1757</ele>
        <time>2015-05-08T09:14:56Z</time>
      </trkpt>
      <trkpt lat="42.90568" lon="0.13049">
        <ele>1757</ele>
        <time>2015-05-08T09:15:16Z</time>
      </trkpt>
      <trkpt lat="42.90568" lon="0.13045">
        <ele>1758</ele>
        <time>2015-05-08T09:15:29Z</time>
      </trkpt>
      <trkpt lat="42.90567" lon="0.13043">
        <ele>1757</ele>
        <time>2015-05-08T09:15:40Z</time>
      </trkpt>
      <trkpt lat="42.90568" lon="0.13037">
        <ele>1756</ele>
        <time>2015-05-08T09:15:58Z</time>
      </trkpt>
      <trkpt lat="42.90569" lon="0.13036">
        <ele>1756</ele>
        <time>2015-05-08T09:16:32Z</time>
      </trkpt>
      <trkpt lat="42.90567" lon="0.13035">
        <ele>1756</ele>
        <time>2015-05-08T09:17:10Z</time>
      </trkpt>
      <trkpt lat="42.90569" lon="0.13041">
        <ele>1755</ele>
        <time>2015-05-08T09:17:48Z</time>
      </trkpt>
      <trkpt lat="42.90573" lon="0.13041">
        <ele>1756</ele>
        <time>2015-05-08T09:18:21Z</time>
      </trkpt>
      <trkpt lat="42.90573" lon="0.13042">
        <ele>1756</ele>
        <time>2015-05-08T09:18:52Z</time>
      </trkpt>
      <trkpt lat="42.90582" lon="0.13042">
        <ele>1756</ele>
        <time>2015-05-08T09:19:24Z</time>
      </trkpt>
      <trkpt lat="42.9059" lon="0.13044">
        <ele>1756</ele>
        <time>2015-05-08T09:19:59Z</time>
      </trkpt>
      <trkpt lat="42.90577" lon="0.13034">
        <ele>1757</ele>
        <time>2015-05-08T09:20:32Z</time>
      </trkpt>
      <trkpt lat="42.90569" lon="0.13034">
        <ele>1756</ele>
        <time>2015-05-08T09:21:05Z</time>
      </trkpt>
      <trkpt lat="42.90569" lon="0.13035">
        <ele>1756</ele>
        <time>2015-05-08T09:21:37Z</time>
      </trkpt>
      <trkpt lat="42.90569" lon="0.13036">
        <ele>1757</ele>
        <time>2015-05-08T09:22:04Z</time>
      </trkpt>
      <trkpt lat="42.9057" lon="0.13041">
        <ele>1757</ele>
        <time>2015-05-08T09:22:30Z</time>
      </trkpt>
      <trkpt lat="42.90569" lon="0.13043">
        <ele>1757</ele>
        <time>2015-05-08T09:23:01Z</time>
      </trkpt>
      <trkpt lat="42.90569" lon="0.13043">
        <ele>1757</ele>
        <time>2015-05-08T09:23:35Z</time>
      </trkpt>
      <trkpt lat="42.90566" lon="0.13045">
        <ele>1758</ele>
        <time>2015-05-08T09:23:54Z</time>
      </trkpt>
      <trkpt lat="42.90569" lon="0.13047">
        <ele>1758</ele>
        <time>2015-05-08T09:24:15Z</time>
      </trkpt>
    </trkseg>
  </trk>
</gpx>